<?xml version="1.0" encoding="UTF-8" standalone="no" ?>
<gpx xmlns="http://www.topografix.com/GPX/1/1" xmlns:xsi="http://www.w3.org/2001/XMLSchema-instance" xsi:schemaLocation="http://www.topografix.com/GPX/1/1 http://www.topografix.com/GPX/1/1/gpx.xsd" version="1.1" creator="VisuGPX - https://www.visugpx.com">
  <metadata>
    <name>Tiwal 13 Mai 2018</name>
    <desc><![CDATA[Essai tiwal 13 mai 2018 Golfe du Morbihan]]></desc>
  </metadata>
  <trk>
    <name><![CDATA[20180515224921-lcTwD]]></name>
    <trkseg>
      <trkpt lat="47.61536" lon="-2.82674">
        <ele>8</ele>
      </trkpt>
      <trkpt lat="47.61536" lon="-2.82676">
        <ele>8</ele>
      </trkpt>
      <trkpt lat="47.61537" lon="-2.82673">
        <ele>8</ele>
        <time>2018-05-13T13:09:05Z</time>
      </trkpt>
      <trkpt lat="47.61514" lon="-2.82647">
        <ele>9</ele>
        <time>2018-05-13T13:09:22Z</time>
      </trkpt>
      <trkpt lat="47.61504" lon="-2.82641">
        <ele>9</ele>
        <time>2018-05-13T13:09:29Z</time>
      </trkpt>
      <trkpt lat="47.61496" lon="-2.82636">
        <time>2018-05-13T13:09:34Z</time>
      </trkpt>
      <trkpt lat="47.6148" lon="-2.8262">
        <time>2018-05-13T13:09:45Z</time>
      </trkpt>
      <trkpt lat="47.61476" lon="-2.82619">
        <time>2018-05-13T13:09:48Z</time>
      </trkpt>
      <trkpt lat="47.61472" lon="-2.8262">
        <time>2018-05-13T13:10:00Z</time>
      </trkpt>
      <trkpt lat="47.6147" lon="-2.82618">
        <time>2018-05-13T13:10:02Z</time>
      </trkpt>
      <trkpt lat="47.61452" lon="-2.82605">
        <time>2018-05-13T13:10:12Z</time>
      </trkpt>
      <trkpt lat="47.61448" lon="-2.82601">
        <time>2018-05-13T13:10:14Z</time>
      </trkpt>
      <trkpt lat="47.61442" lon="-2.82596">
        <time>2018-05-13T13:10:18Z</time>
      </trkpt>
      <trkpt lat="47.61422" lon="-2.82581">
        <time>2018-05-13T13:10:27Z</time>
      </trkpt>
      <trkpt lat="47.61395" lon="-2.82557">
        <time>2018-05-13T13:10:42Z</time>
      </trkpt>
      <trkpt lat="47.61375" lon="-2.82534">
        <time>2018-05-13T13:10:55Z</time>
      </trkpt>
      <trkpt lat="47.61354" lon="-2.82519">
        <time>2018-05-13T13:11:07Z</time>
      </trkpt>
      <trkpt lat="47.61344" lon="-2.82514">
        <time>2018-05-13T13:11:13Z</time>
      </trkpt>
      <trkpt lat="47.61325" lon="-2.82513">
        <time>2018-05-13T13:11:22Z</time>
      </trkpt>
      <trkpt lat="47.61306" lon="-2.82515">
        <time>2018-05-13T13:11:32Z</time>
      </trkpt>
      <trkpt lat="47.61284" lon="-2.82521">
        <time>2018-05-13T13:11:44Z</time>
      </trkpt>
      <trkpt lat="47.61259" lon="-2.82533">
        <time>2018-05-13T13:11:59Z</time>
      </trkpt>
      <trkpt lat="47.61235" lon="-2.82545">
        <time>2018-05-13T13:12:13Z</time>
      </trkpt>
      <trkpt lat="47.61207" lon="-2.8256">
        <time>2018-05-13T13:12:29Z</time>
      </trkpt>
      <trkpt lat="47.61175" lon="-2.82573">
        <time>2018-05-13T13:12:46Z</time>
      </trkpt>
      <trkpt lat="47.61152" lon="-2.82576">
        <time>2018-05-13T13:12:59Z</time>
      </trkpt>
      <trkpt lat="47.61127" lon="-2.82575">
        <time>2018-05-13T13:13:14Z</time>
      </trkpt>
      <trkpt lat="47.61123" lon="-2.82575">
        <time>2018-05-13T13:13:17Z</time>
      </trkpt>
      <trkpt lat="47.61116" lon="-2.82574">
        <time>2018-05-13T13:13:21Z</time>
      </trkpt>
      <trkpt lat="47.61087" lon="-2.82567">
        <time>2018-05-13T13:13:39Z</time>
      </trkpt>
      <trkpt lat="47.61064" lon="-2.82568">
        <time>2018-05-13T13:13:53Z</time>
      </trkpt>
      <trkpt lat="47.61036" lon="-2.82557">
        <time>2018-05-13T13:14:09Z</time>
      </trkpt>
      <trkpt lat="47.61011" lon="-2.82549">
        <time>2018-05-13T13:14:24Z</time>
      </trkpt>
      <trkpt lat="47.60985" lon="-2.82538">
        <time>2018-05-13T13:14:38Z</time>
      </trkpt>
      <trkpt lat="47.60953" lon="-2.82527">
        <time>2018-05-13T13:14:54Z</time>
      </trkpt>
      <trkpt lat="47.60927" lon="-2.82509">
        <time>2018-05-13T13:15:10Z</time>
      </trkpt>
      <trkpt lat="47.60916" lon="-2.82499">
        <time>2018-05-13T13:15:17Z</time>
      </trkpt>
      <trkpt lat="47.60903" lon="-2.82489">
        <time>2018-05-13T13:15:25Z</time>
      </trkpt>
      <trkpt lat="47.6089" lon="-2.82475">
        <time>2018-05-13T13:15:33Z</time>
      </trkpt>
      <trkpt lat="47.60866" lon="-2.82447">
        <time>2018-05-13T13:15:46Z</time>
      </trkpt>
      <trkpt lat="47.60859" lon="-2.82441">
        <time>2018-05-13T13:15:49Z</time>
      </trkpt>
      <trkpt lat="47.60851" lon="-2.82434">
        <time>2018-05-13T13:15:54Z</time>
      </trkpt>
      <trkpt lat="47.60838" lon="-2.82421">
        <time>2018-05-13T13:16:02Z</time>
      </trkpt>
      <trkpt lat="47.60834" lon="-2.82417">
        <time>2018-05-13T13:16:05Z</time>
      </trkpt>
      <trkpt lat="47.60826" lon="-2.82404">
        <time>2018-05-13T13:16:09Z</time>
      </trkpt>
      <trkpt lat="47.60795" lon="-2.82368">
        <time>2018-05-13T13:16:23Z</time>
      </trkpt>
      <trkpt lat="47.60778" lon="-2.82347">
        <time>2018-05-13T13:16:31Z</time>
      </trkpt>
      <trkpt lat="47.6074" lon="-2.82317">
        <time>2018-05-13T13:16:46Z</time>
      </trkpt>
      <trkpt lat="47.60709" lon="-2.82295">
        <time>2018-05-13T13:16:59Z</time>
      </trkpt>
      <trkpt lat="47.60674" lon="-2.82277">
        <time>2018-05-13T13:17:14Z</time>
      </trkpt>
      <trkpt lat="47.60642" lon="-2.82259">
        <time>2018-05-13T13:17:28Z</time>
      </trkpt>
      <trkpt lat="47.60601" lon="-2.82244">
        <time>2018-05-13T13:17:44Z</time>
      </trkpt>
      <trkpt lat="47.60574" lon="-2.8224">
        <time>2018-05-13T13:17:55Z</time>
      </trkpt>
      <trkpt lat="47.60544" lon="-2.8224">
        <time>2018-05-13T13:18:08Z</time>
      </trkpt>
      <trkpt lat="47.6053" lon="-2.82238">
        <time>2018-05-13T13:18:14Z</time>
      </trkpt>
      <trkpt lat="47.60504" lon="-2.82235">
        <time>2018-05-13T13:18:26Z</time>
      </trkpt>
      <trkpt lat="47.60502" lon="-2.82235">
        <time>2018-05-13T13:18:27Z</time>
      </trkpt>
      <trkpt lat="47.60493" lon="-2.82234">
        <time>2018-05-13T13:18:31Z</time>
      </trkpt>
      <trkpt lat="47.60482" lon="-2.82233">
        <time>2018-05-13T13:18:36Z</time>
      </trkpt>
      <trkpt lat="47.60462" lon="-2.82237">
        <time>2018-05-13T13:18:47Z</time>
      </trkpt>
      <trkpt lat="47.60449" lon="-2.82239">
        <time>2018-05-13T13:18:55Z</time>
      </trkpt>
      <trkpt lat="47.60422" lon="-2.8224">
        <time>2018-05-13T13:19:08Z</time>
      </trkpt>
      <trkpt lat="47.60396" lon="-2.82246">
        <time>2018-05-13T13:19:21Z</time>
      </trkpt>
      <trkpt lat="47.60394" lon="-2.82245">
        <time>2018-05-13T13:19:22Z</time>
      </trkpt>
      <trkpt lat="47.60392" lon="-2.82252">
        <time>2018-05-13T13:19:31Z</time>
      </trkpt>
      <trkpt lat="47.60396" lon="-2.82265">
        <time>2018-05-13T13:19:37Z</time>
      </trkpt>
      <trkpt lat="47.60397" lon="-2.82274">
        <time>2018-05-13T13:19:41Z</time>
      </trkpt>
      <trkpt lat="47.60397" lon="-2.82285">
        <time>2018-05-13T13:19:46Z</time>
      </trkpt>
      <trkpt lat="47.60396" lon="-2.82298">
        <time>2018-05-13T13:19:51Z</time>
      </trkpt>
      <trkpt lat="47.60399" lon="-2.82342">
        <time>2018-05-13T13:20:07Z</time>
      </trkpt>
      <trkpt lat="47.60402" lon="-2.82387">
        <time>2018-05-13T13:20:24Z</time>
      </trkpt>
      <trkpt lat="47.60409" lon="-2.82431">
        <time>2018-05-13T13:20:41Z</time>
      </trkpt>
      <trkpt lat="47.60417" lon="-2.82472">
        <time>2018-05-13T13:20:55Z</time>
      </trkpt>
      <trkpt lat="47.60427" lon="-2.82514">
        <time>2018-05-13T13:21:11Z</time>
      </trkpt>
      <trkpt lat="47.60429" lon="-2.82519">
        <time>2018-05-13T13:21:13Z</time>
      </trkpt>
      <trkpt lat="47.60435" lon="-2.8254">
        <time>2018-05-13T13:21:21Z</time>
      </trkpt>
      <trkpt lat="47.60443" lon="-2.82576">
        <time>2018-05-13T13:21:35Z</time>
      </trkpt>
      <trkpt lat="47.60447" lon="-2.82592">
        <time>2018-05-13T13:21:41Z</time>
      </trkpt>
      <trkpt lat="47.60456" lon="-2.82629">
        <time>2018-05-13T13:21:55Z</time>
      </trkpt>
      <trkpt lat="47.60466" lon="-2.82669">
        <time>2018-05-13T13:22:10Z</time>
      </trkpt>
      <trkpt lat="47.6048" lon="-2.8271">
        <time>2018-05-13T13:22:26Z</time>
      </trkpt>
      <trkpt lat="47.60483" lon="-2.8272">
        <time>2018-05-13T13:22:30Z</time>
      </trkpt>
      <trkpt lat="47.60501" lon="-2.82754">
        <time>2018-05-13T13:22:45Z</time>
      </trkpt>
      <trkpt lat="47.60504" lon="-2.82758">
        <time>2018-05-13T13:22:47Z</time>
      </trkpt>
      <trkpt lat="47.60508" lon="-2.82767">
        <time>2018-05-13T13:22:51Z</time>
      </trkpt>
      <trkpt lat="47.60518" lon="-2.82783">
        <time>2018-05-13T13:23:01Z</time>
      </trkpt>
      <trkpt lat="47.60536" lon="-2.8282">
        <time>2018-05-13T13:23:21Z</time>
      </trkpt>
      <trkpt lat="47.60537" lon="-2.82821">
        <time>2018-05-13T13:23:22Z</time>
      </trkpt>
      <trkpt lat="47.60546" lon="-2.82835">
        <time>2018-05-13T13:23:33Z</time>
      </trkpt>
      <trkpt lat="47.60552" lon="-2.82843">
        <time>2018-05-13T13:23:49Z</time>
      </trkpt>
      <trkpt lat="47.60556" lon="-2.82848">
        <time>2018-05-13T13:23:57Z</time>
      </trkpt>
      <trkpt lat="47.60558" lon="-2.82865">
        <time>2018-05-13T13:24:13Z</time>
      </trkpt>
      <trkpt lat="47.6055" lon="-2.82862">
        <time>2018-05-13T13:24:19Z</time>
      </trkpt>
      <trkpt lat="47.6054" lon="-2.82859">
        <time>2018-05-13T13:24:25Z</time>
      </trkpt>
      <trkpt lat="47.60537" lon="-2.82859">
        <time>2018-05-13T13:24:27Z</time>
      </trkpt>
      <trkpt lat="47.60519" lon="-2.82858">
        <time>2018-05-13T13:24:37Z</time>
      </trkpt>
      <trkpt lat="47.60508" lon="-2.8286">
        <time>2018-05-13T13:24:45Z</time>
      </trkpt>
      <trkpt lat="47.60481" lon="-2.82856">
        <time>2018-05-13T13:25:00Z</time>
      </trkpt>
      <trkpt lat="47.60477" lon="-2.82856">
        <time>2018-05-13T13:25:02Z</time>
      </trkpt>
      <trkpt lat="47.60463" lon="-2.82857">
        <time>2018-05-13T13:25:10Z</time>
      </trkpt>
      <trkpt lat="47.60421" lon="-2.8285">
        <time>2018-05-13T13:25:29Z</time>
      </trkpt>
      <trkpt lat="47.60393" lon="-2.82845">
        <time>2018-05-13T13:25:43Z</time>
      </trkpt>
      <trkpt lat="47.60359" lon="-2.82831">
        <time>2018-05-13T13:25:59Z</time>
      </trkpt>
      <trkpt lat="47.60327" lon="-2.82821">
        <time>2018-05-13T13:26:14Z</time>
      </trkpt>
      <trkpt lat="47.603" lon="-2.82818">
        <time>2018-05-13T13:26:27Z</time>
      </trkpt>
      <trkpt lat="47.60257" lon="-2.82815">
        <time>2018-05-13T13:26:44Z</time>
      </trkpt>
      <trkpt lat="47.6022" lon="-2.82812">
        <time>2018-05-13T13:26:59Z</time>
      </trkpt>
      <trkpt lat="47.60191" lon="-2.82804">
        <time>2018-05-13T13:27:11Z</time>
      </trkpt>
      <trkpt lat="47.6016" lon="-2.82798">
        <time>2018-05-13T13:27:25Z</time>
      </trkpt>
      <trkpt lat="47.60153" lon="-2.82797">
        <time>2018-05-13T13:27:28Z</time>
      </trkpt>
      <trkpt lat="47.60144" lon="-2.82794">
        <time>2018-05-13T13:27:32Z</time>
      </trkpt>
      <trkpt lat="47.60108" lon="-2.82787">
        <time>2018-05-13T13:27:47Z</time>
      </trkpt>
      <trkpt lat="47.60081" lon="-2.82785">
        <time>2018-05-13T13:27:59Z</time>
      </trkpt>
      <trkpt lat="47.60068" lon="-2.82785">
        <time>2018-05-13T13:28:04Z</time>
      </trkpt>
      <trkpt lat="47.60044" lon="-2.82783">
        <time>2018-05-13T13:28:13Z</time>
      </trkpt>
      <trkpt lat="47.60039" lon="-2.82782">
        <time>2018-05-13T13:28:15Z</time>
      </trkpt>
      <trkpt lat="47.6002" lon="-2.82778">
        <time>2018-05-13T13:28:22Z</time>
      </trkpt>
      <trkpt lat="47.59997" lon="-2.82773">
        <time>2018-05-13T13:28:31Z</time>
      </trkpt>
      <trkpt lat="47.59967" lon="-2.82762">
        <time>2018-05-13T13:28:44Z</time>
      </trkpt>
      <trkpt lat="47.59959" lon="-2.82758">
        <time>2018-05-13T13:28:48Z</time>
      </trkpt>
      <trkpt lat="47.59932" lon="-2.82749">
        <time>2018-05-13T13:28:59Z</time>
      </trkpt>
      <trkpt lat="47.59919" lon="-2.82743">
        <time>2018-05-13T13:29:05Z</time>
      </trkpt>
      <trkpt lat="47.59877" lon="-2.82722">
        <time>2018-05-13T13:29:22Z</time>
      </trkpt>
      <trkpt lat="47.59872" lon="-2.8272">
        <time>2018-05-13T13:29:24Z</time>
      </trkpt>
      <trkpt lat="47.59837" lon="-2.827">
        <time>2018-05-13T13:29:38Z</time>
      </trkpt>
      <trkpt lat="47.59797" lon="-2.82682">
        <time>2018-05-13T13:29:55Z</time>
      </trkpt>
      <trkpt lat="47.59784" lon="-2.82674">
        <time>2018-05-13T13:30:01Z</time>
      </trkpt>
      <trkpt lat="47.5977" lon="-2.8266">
        <time>2018-05-13T13:30:10Z</time>
      </trkpt>
      <trkpt lat="47.59754" lon="-2.82648">
        <time>2018-05-13T13:30:18Z</time>
      </trkpt>
      <trkpt lat="47.59739" lon="-2.82637">
        <time>2018-05-13T13:30:25Z</time>
      </trkpt>
      <trkpt lat="47.5973" lon="-2.82632">
        <time>2018-05-13T13:30:29Z</time>
      </trkpt>
      <trkpt lat="47.59718" lon="-2.82619">
        <time>2018-05-13T13:30:36Z</time>
      </trkpt>
      <trkpt lat="47.59701" lon="-2.8259">
        <time>2018-05-13T13:30:50Z</time>
      </trkpt>
      <trkpt lat="47.59673" lon="-2.82565">
        <time>2018-05-13T13:31:05Z</time>
      </trkpt>
      <trkpt lat="47.59653" lon="-2.82551">
        <time>2018-05-13T13:31:14Z</time>
      </trkpt>
      <trkpt lat="47.59644" lon="-2.82546">
        <time>2018-05-13T13:31:18Z</time>
      </trkpt>
      <trkpt lat="47.59615" lon="-2.82518">
        <time>2018-05-13T13:31:33Z</time>
      </trkpt>
      <trkpt lat="47.59613" lon="-2.82512">
        <time>2018-05-13T13:31:35Z</time>
      </trkpt>
      <trkpt lat="47.59607" lon="-2.82504">
        <time>2018-05-13T13:31:39Z</time>
      </trkpt>
      <trkpt lat="47.59583" lon="-2.8247">
        <time>2018-05-13T13:31:53Z</time>
      </trkpt>
      <trkpt lat="47.59557" lon="-2.82425">
        <time>2018-05-13T13:32:10Z</time>
      </trkpt>
      <trkpt lat="47.59532" lon="-2.82389">
        <time>2018-05-13T13:32:25Z</time>
      </trkpt>
      <trkpt lat="47.5953" lon="-2.82387">
        <time>2018-05-13T13:32:26Z</time>
      </trkpt>
      <trkpt lat="47.59522" lon="-2.82378">
        <time>2018-05-13T13:32:31Z</time>
      </trkpt>
      <trkpt lat="47.59513" lon="-2.82366">
        <time>2018-05-13T13:32:37Z</time>
      </trkpt>
      <trkpt lat="47.5951" lon="-2.82362">
        <time>2018-05-13T13:32:39Z</time>
      </trkpt>
      <trkpt lat="47.59506" lon="-2.82354">
        <time>2018-05-13T13:32:43Z</time>
      </trkpt>
      <trkpt lat="47.59499" lon="-2.82337">
        <time>2018-05-13T13:32:51Z</time>
      </trkpt>
      <trkpt lat="47.59492" lon="-2.82323">
        <time>2018-05-13T13:32:58Z</time>
      </trkpt>
      <trkpt lat="47.59481" lon="-2.82309">
        <time>2018-05-13T13:33:05Z</time>
      </trkpt>
      <trkpt lat="47.5947" lon="-2.823">
        <time>2018-05-13T13:33:11Z</time>
      </trkpt>
      <trkpt lat="47.59458" lon="-2.8229">
        <time>2018-05-13T13:33:18Z</time>
      </trkpt>
      <trkpt lat="47.59448" lon="-2.82275">
        <time>2018-05-13T13:33:25Z</time>
      </trkpt>
      <trkpt lat="47.59429" lon="-2.82253">
        <time>2018-05-13T13:33:37Z</time>
      </trkpt>
      <trkpt lat="47.59425" lon="-2.82252">
        <time>2018-05-13T13:33:39Z</time>
      </trkpt>
      <trkpt lat="47.59393" lon="-2.82229">
        <time>2018-05-13T13:33:54Z</time>
      </trkpt>
      <trkpt lat="47.59391" lon="-2.82228">
        <time>2018-05-13T13:33:55Z</time>
      </trkpt>
      <trkpt lat="47.5938" lon="-2.82218">
        <time>2018-05-13T13:34:00Z</time>
      </trkpt>
      <trkpt lat="47.59354" lon="-2.82202">
        <time>2018-05-13T13:34:12Z</time>
      </trkpt>
      <trkpt lat="47.59325" lon="-2.82188">
        <time>2018-05-13T13:34:25Z</time>
      </trkpt>
      <trkpt lat="47.59291" lon="-2.82177">
        <time>2018-05-13T13:34:39Z</time>
      </trkpt>
      <trkpt lat="47.59262" lon="-2.82168">
        <time>2018-05-13T13:34:52Z</time>
      </trkpt>
      <trkpt lat="47.59235" lon="-2.82158">
        <time>2018-05-13T13:35:05Z</time>
      </trkpt>
      <trkpt lat="47.59202" lon="-2.82146">
        <time>2018-05-13T13:35:20Z</time>
      </trkpt>
      <trkpt lat="47.59173" lon="-2.82143">
        <time>2018-05-13T13:35:34Z</time>
      </trkpt>
      <trkpt lat="47.59138" lon="-2.82134">
        <time>2018-05-13T13:35:50Z</time>
      </trkpt>
      <trkpt lat="47.5911" lon="-2.82125">
        <time>2018-05-13T13:36:05Z</time>
      </trkpt>
      <trkpt lat="47.59092" lon="-2.82116">
        <time>2018-05-13T13:36:15Z</time>
      </trkpt>
      <trkpt lat="47.59065" lon="-2.82103">
        <time>2018-05-13T13:36:28Z</time>
      </trkpt>
      <trkpt lat="47.59043" lon="-2.82091">
        <time>2018-05-13T13:36:38Z</time>
      </trkpt>
      <trkpt lat="47.59013" lon="-2.82079">
        <time>2018-05-13T13:36:52Z</time>
      </trkpt>
      <trkpt lat="47.58993" lon="-2.82075">
        <time>2018-05-13T13:37:00Z</time>
      </trkpt>
      <trkpt lat="47.58962" lon="-2.82071">
        <time>2018-05-13T13:37:14Z</time>
      </trkpt>
      <trkpt lat="47.58938" lon="-2.82073">
        <time>2018-05-13T13:37:25Z</time>
      </trkpt>
      <trkpt lat="47.58924" lon="-2.82073">
        <time>2018-05-13T13:37:32Z</time>
      </trkpt>
      <trkpt lat="47.58905" lon="-2.82072">
        <time>2018-05-13T13:37:40Z</time>
      </trkpt>
      <trkpt lat="47.58894" lon="-2.82074">
        <time>2018-05-13T13:37:45Z</time>
      </trkpt>
      <trkpt lat="47.58868" lon="-2.8207">
        <time>2018-05-13T13:37:56Z</time>
      </trkpt>
      <trkpt lat="47.58835" lon="-2.82068">
        <time>2018-05-13T13:38:10Z</time>
      </trkpt>
      <trkpt lat="47.58832" lon="-2.82067">
        <time>2018-05-13T13:38:11Z</time>
      </trkpt>
      <trkpt lat="47.58823" lon="-2.82066">
        <time>2018-05-13T13:38:15Z</time>
      </trkpt>
      <trkpt lat="47.58806" lon="-2.82068">
        <time>2018-05-13T13:38:22Z</time>
      </trkpt>
      <trkpt lat="47.58779" lon="-2.82072">
        <time>2018-05-13T13:38:33Z</time>
      </trkpt>
      <trkpt lat="47.58774" lon="-2.82072">
        <time>2018-05-13T13:38:35Z</time>
      </trkpt>
      <trkpt lat="47.58744" lon="-2.82074">
        <time>2018-05-13T13:38:48Z</time>
      </trkpt>
      <trkpt lat="47.58736" lon="-2.82074">
        <time>2018-05-13T13:38:52Z</time>
      </trkpt>
      <trkpt lat="47.5873" lon="-2.82075">
        <time>2018-05-13T13:38:55Z</time>
      </trkpt>
      <trkpt lat="47.58714" lon="-2.82077">
        <time>2018-05-13T13:39:02Z</time>
      </trkpt>
      <trkpt lat="47.58703" lon="-2.82078">
        <time>2018-05-13T13:39:07Z</time>
      </trkpt>
      <trkpt lat="47.58671" lon="-2.82082">
        <time>2018-05-13T13:39:21Z</time>
      </trkpt>
      <trkpt lat="47.58644" lon="-2.82082">
        <time>2018-05-13T13:39:33Z</time>
      </trkpt>
      <trkpt lat="47.58619" lon="-2.82082">
        <time>2018-05-13T13:39:44Z</time>
      </trkpt>
      <trkpt lat="47.58605" lon="-2.8208">
        <time>2018-05-13T13:39:50Z</time>
      </trkpt>
      <trkpt lat="47.58573" lon="-2.8208">
        <time>2018-05-13T13:40:04Z</time>
      </trkpt>
      <trkpt lat="47.58563" lon="-2.82079">
        <time>2018-05-13T13:40:08Z</time>
      </trkpt>
      <trkpt lat="47.58554" lon="-2.82079">
        <time>2018-05-13T13:40:12Z</time>
      </trkpt>
      <trkpt lat="47.58543" lon="-2.82081">
        <time>2018-05-13T13:40:17Z</time>
      </trkpt>
      <trkpt lat="47.58534" lon="-2.82083">
        <time>2018-05-13T13:40:22Z</time>
      </trkpt>
      <trkpt lat="47.58502" lon="-2.82084">
        <time>2018-05-13T13:40:37Z</time>
      </trkpt>
      <trkpt lat="47.58477" lon="-2.82089">
        <time>2018-05-13T13:40:49Z</time>
      </trkpt>
      <trkpt lat="47.5846" lon="-2.82098">
        <time>2018-05-13T13:40:59Z</time>
      </trkpt>
      <trkpt lat="47.58438" lon="-2.82103">
        <time>2018-05-13T13:41:11Z</time>
      </trkpt>
      <trkpt lat="47.58402" lon="-2.82101">
        <time>2018-05-13T13:41:26Z</time>
      </trkpt>
      <trkpt lat="47.58373" lon="-2.82102">
        <time>2018-05-13T13:41:39Z</time>
      </trkpt>
      <trkpt lat="47.58344" lon="-2.82106">
        <time>2018-05-13T13:41:52Z</time>
      </trkpt>
      <trkpt lat="47.58309" lon="-2.821">
        <time>2018-05-13T13:42:07Z</time>
      </trkpt>
      <trkpt lat="47.58307" lon="-2.821">
        <time>2018-05-13T13:42:08Z</time>
      </trkpt>
      <trkpt lat="47.58288" lon="-2.82104">
        <time>2018-05-13T13:42:17Z</time>
      </trkpt>
      <trkpt lat="47.5826" lon="-2.82107">
        <time>2018-05-13T13:42:32Z</time>
      </trkpt>
      <trkpt lat="47.58254" lon="-2.82108">
        <time>2018-05-13T13:42:35Z</time>
      </trkpt>
      <trkpt lat="47.58236" lon="-2.82107">
        <time>2018-05-13T13:42:46Z</time>
      </trkpt>
      <trkpt lat="47.5823" lon="-2.82106">
        <time>2018-05-13T13:42:49Z</time>
      </trkpt>
      <trkpt lat="47.58208" lon="-2.82107">
        <time>2018-05-13T13:43:00Z</time>
      </trkpt>
      <trkpt lat="47.58189" lon="-2.82109">
        <time>2018-05-13T13:43:10Z</time>
      </trkpt>
      <trkpt lat="47.58184" lon="-2.82111">
        <time>2018-05-13T13:43:14Z</time>
      </trkpt>
      <trkpt lat="47.58176" lon="-2.82114">
        <time>2018-05-13T13:43:19Z</time>
      </trkpt>
      <trkpt lat="47.58168" lon="-2.82115">
        <time>2018-05-13T13:43:24Z</time>
      </trkpt>
      <trkpt lat="47.58151" lon="-2.82121">
        <time>2018-05-13T13:43:34Z</time>
      </trkpt>
      <trkpt lat="47.58141" lon="-2.82122">
        <time>2018-05-13T13:43:40Z</time>
      </trkpt>
      <trkpt lat="47.58125" lon="-2.82125">
        <time>2018-05-13T13:43:49Z</time>
      </trkpt>
      <trkpt lat="47.58119" lon="-2.82127">
        <time>2018-05-13T13:43:53Z</time>
      </trkpt>
      <trkpt lat="47.58115" lon="-2.82127">
        <time>2018-05-13T13:43:55Z</time>
      </trkpt>
      <trkpt lat="47.58108" lon="-2.82127">
        <time>2018-05-13T13:44:00Z</time>
      </trkpt>
      <trkpt lat="47.58097" lon="-2.82127">
        <time>2018-05-13T13:44:15Z</time>
      </trkpt>
      <trkpt lat="47.58095" lon="-2.82126">
        <time>2018-05-13T13:44:17Z</time>
      </trkpt>
      <trkpt lat="47.58079" lon="-2.82119">
        <time>2018-05-13T13:44:38Z</time>
      </trkpt>
      <trkpt lat="47.58073" lon="-2.82113">
        <time>2018-05-13T13:44:57Z</time>
      </trkpt>
      <trkpt lat="47.58069" lon="-2.82102">
        <time>2018-05-13T13:45:15Z</time>
      </trkpt>
      <trkpt lat="47.58063" lon="-2.82091">
        <time>2018-05-13T13:45:35Z</time>
      </trkpt>
      <trkpt lat="47.58057" lon="-2.82089">
        <time>2018-05-13T13:45:44Z</time>
      </trkpt>
      <trkpt lat="47.58044" lon="-2.82085">
        <time>2018-05-13T13:45:55Z</time>
      </trkpt>
      <trkpt lat="47.58035" lon="-2.82086">
        <time>2018-05-13T13:46:00Z</time>
      </trkpt>
      <trkpt lat="47.5802" lon="-2.82093">
        <time>2018-05-13T13:46:10Z</time>
      </trkpt>
      <trkpt lat="47.58012" lon="-2.82096">
        <time>2018-05-13T13:46:15Z</time>
      </trkpt>
      <trkpt lat="47.57993" lon="-2.82102">
        <time>2018-05-13T13:46:27Z</time>
      </trkpt>
      <trkpt lat="47.57981" lon="-2.82106">
        <time>2018-05-13T13:46:35Z</time>
      </trkpt>
      <trkpt lat="47.57972" lon="-2.82111">
        <time>2018-05-13T13:46:41Z</time>
      </trkpt>
      <trkpt lat="47.57966" lon="-2.82113">
        <time>2018-05-13T13:46:45Z</time>
      </trkpt>
      <trkpt lat="47.57956" lon="-2.82114">
        <time>2018-05-13T13:46:50Z</time>
      </trkpt>
      <trkpt lat="47.57944" lon="-2.82117">
        <time>2018-05-13T13:46:57Z</time>
      </trkpt>
      <trkpt lat="47.57925" lon="-2.82121">
        <time>2018-05-13T13:47:08Z</time>
      </trkpt>
      <trkpt lat="47.5792" lon="-2.82122">
        <time>2018-05-13T13:47:11Z</time>
      </trkpt>
      <trkpt lat="47.57914" lon="-2.82124">
        <time>2018-05-13T13:47:15Z</time>
      </trkpt>
      <trkpt lat="47.57893" lon="-2.8213">
        <time>2018-05-13T13:47:27Z</time>
      </trkpt>
      <trkpt lat="47.57865" lon="-2.82132">
        <time>2018-05-13T13:47:41Z</time>
      </trkpt>
      <trkpt lat="47.57848" lon="-2.82134">
        <time>2018-05-13T13:47:53Z</time>
      </trkpt>
      <trkpt lat="47.57827" lon="-2.82135">
        <time>2018-05-13T13:48:05Z</time>
      </trkpt>
      <trkpt lat="47.57793" lon="-2.82135">
        <time>2018-05-13T13:48:22Z</time>
      </trkpt>
      <trkpt lat="47.57786" lon="-2.82135">
        <time>2018-05-13T13:48:26Z</time>
      </trkpt>
      <trkpt lat="47.5778" lon="-2.82135">
        <time>2018-05-13T13:48:29Z</time>
      </trkpt>
      <trkpt lat="47.57773" lon="-2.82138">
        <time>2018-05-13T13:48:33Z</time>
      </trkpt>
      <trkpt lat="47.57746" lon="-2.8214">
        <time>2018-05-13T13:48:47Z</time>
      </trkpt>
      <trkpt lat="47.5772" lon="-2.82137">
        <time>2018-05-13T13:49:00Z</time>
      </trkpt>
      <trkpt lat="47.57695" lon="-2.82137">
        <time>2018-05-13T13:49:13Z</time>
      </trkpt>
      <trkpt lat="47.5767" lon="-2.82135">
        <time>2018-05-13T13:49:25Z</time>
      </trkpt>
      <trkpt lat="47.57641" lon="-2.82134">
        <time>2018-05-13T13:49:39Z</time>
      </trkpt>
      <trkpt lat="47.57618" lon="-2.82134">
        <time>2018-05-13T13:49:51Z</time>
      </trkpt>
      <trkpt lat="47.57598" lon="-2.82137">
        <time>2018-05-13T13:50:02Z</time>
      </trkpt>
      <trkpt lat="47.57577" lon="-2.82141">
        <time>2018-05-13T13:50:14Z</time>
      </trkpt>
      <trkpt lat="47.57557" lon="-2.82141">
        <time>2018-05-13T13:50:26Z</time>
      </trkpt>
      <trkpt lat="47.57537" lon="-2.82139">
        <time>2018-05-13T13:50:36Z</time>
      </trkpt>
      <trkpt lat="47.57511" lon="-2.82139">
        <time>2018-05-13T13:50:50Z</time>
      </trkpt>
      <trkpt lat="47.5749" lon="-2.8214">
        <time>2018-05-13T13:51:02Z</time>
      </trkpt>
      <trkpt lat="47.57467" lon="-2.82139">
        <time>2018-05-13T13:51:15Z</time>
      </trkpt>
      <trkpt lat="47.57446" lon="-2.82136">
        <time>2018-05-13T13:51:27Z</time>
      </trkpt>
      <trkpt lat="47.57422" lon="-2.82132">
        <time>2018-05-13T13:51:40Z</time>
      </trkpt>
      <trkpt lat="47.57401" lon="-2.82132">
        <time>2018-05-13T13:51:52Z</time>
      </trkpt>
      <trkpt lat="47.57377" lon="-2.82133">
        <time>2018-05-13T13:52:05Z</time>
      </trkpt>
      <trkpt lat="47.57358" lon="-2.82134">
        <time>2018-05-13T13:52:16Z</time>
      </trkpt>
      <trkpt lat="47.57331" lon="-2.82129">
        <time>2018-05-13T13:52:30Z</time>
      </trkpt>
      <trkpt lat="47.57305" lon="-2.82125">
        <time>2018-05-13T13:52:44Z</time>
      </trkpt>
      <trkpt lat="47.57284" lon="-2.82117">
        <time>2018-05-13T13:52:56Z</time>
      </trkpt>
      <trkpt lat="47.57258" lon="-2.82108">
        <time>2018-05-13T13:53:08Z</time>
      </trkpt>
      <trkpt lat="47.57227" lon="-2.82104">
        <time>2018-05-13T13:53:22Z</time>
      </trkpt>
      <trkpt lat="47.57196" lon="-2.82099">
        <time>2018-05-13T13:53:37Z</time>
      </trkpt>
      <trkpt lat="47.57162" lon="-2.82102">
        <time>2018-05-13T13:53:55Z</time>
      </trkpt>
      <trkpt lat="47.57139" lon="-2.82098">
        <time>2018-05-13T13:54:07Z</time>
      </trkpt>
      <trkpt lat="47.57118" lon="-2.8209">
        <time>2018-05-13T13:54:18Z</time>
      </trkpt>
      <trkpt lat="47.57099" lon="-2.82087">
        <time>2018-05-13T13:54:30Z</time>
      </trkpt>
      <trkpt lat="47.57074" lon="-2.82082">
        <time>2018-05-13T13:54:44Z</time>
      </trkpt>
      <trkpt lat="47.57035" lon="-2.82076">
        <time>2018-05-13T13:55:04Z</time>
      </trkpt>
      <trkpt lat="47.57006" lon="-2.82073">
        <time>2018-05-13T13:55:19Z</time>
      </trkpt>
      <trkpt lat="47.56984" lon="-2.82066">
        <time>2018-05-13T13:55:30Z</time>
      </trkpt>
      <trkpt lat="47.56956" lon="-2.82069">
        <time>2018-05-13T13:55:44Z</time>
      </trkpt>
      <trkpt lat="47.56921" lon="-2.82072">
        <time>2018-05-13T13:56:02Z</time>
      </trkpt>
      <trkpt lat="47.56909" lon="-2.82071">
        <time>2018-05-13T13:56:07Z</time>
      </trkpt>
      <trkpt lat="47.56878" lon="-2.82072">
        <time>2018-05-13T13:56:22Z</time>
      </trkpt>
      <trkpt lat="47.56852" lon="-2.82077">
        <time>2018-05-13T13:56:34Z</time>
      </trkpt>
      <trkpt lat="47.56821" lon="-2.82078">
        <time>2018-05-13T13:56:48Z</time>
      </trkpt>
      <trkpt lat="47.56797" lon="-2.82077">
        <time>2018-05-13T13:56:59Z</time>
      </trkpt>
      <trkpt lat="47.56767" lon="-2.8208">
        <time>2018-05-13T13:57:13Z</time>
      </trkpt>
      <trkpt lat="47.56758" lon="-2.82083">
        <time>2018-05-13T13:57:18Z</time>
      </trkpt>
      <trkpt lat="47.56744" lon="-2.82088">
        <time>2018-05-13T13:57:25Z</time>
      </trkpt>
      <trkpt lat="47.56719" lon="-2.82103">
        <time>2018-05-13T13:57:39Z</time>
      </trkpt>
      <trkpt lat="47.56693" lon="-2.82107">
        <time>2018-05-13T13:57:52Z</time>
      </trkpt>
      <trkpt lat="47.56668" lon="-2.82114">
        <time>2018-05-13T13:58:04Z</time>
      </trkpt>
      <trkpt lat="47.56652" lon="-2.82123">
        <time>2018-05-13T13:58:13Z</time>
      </trkpt>
      <trkpt lat="47.56627" lon="-2.82134">
        <time>2018-05-13T13:58:27Z</time>
      </trkpt>
      <trkpt lat="47.56608" lon="-2.82143">
        <time>2018-05-13T13:58:37Z</time>
      </trkpt>
      <trkpt lat="47.56586" lon="-2.82157">
        <time>2018-05-13T13:58:50Z</time>
      </trkpt>
      <trkpt lat="47.56574" lon="-2.82165">
        <time>2018-05-13T13:58:56Z</time>
      </trkpt>
      <trkpt lat="47.56555" lon="-2.82176">
        <time>2018-05-13T13:59:07Z</time>
      </trkpt>
      <trkpt lat="47.56534" lon="-2.82188">
        <time>2018-05-13T13:59:19Z</time>
      </trkpt>
      <trkpt lat="47.56513" lon="-2.82202">
        <time>2018-05-13T13:59:31Z</time>
      </trkpt>
      <trkpt lat="47.56496" lon="-2.82211">
        <time>2018-05-13T13:59:41Z</time>
      </trkpt>
      <trkpt lat="47.56473" lon="-2.8223">
        <time>2018-05-13T13:59:56Z</time>
      </trkpt>
      <trkpt lat="47.5647" lon="-2.82233">
        <time>2018-05-13T13:59:58Z</time>
      </trkpt>
      <trkpt lat="47.56462" lon="-2.82238">
        <time>2018-05-13T14:00:02Z</time>
      </trkpt>
      <trkpt lat="47.56457" lon="-2.82242">
        <time>2018-05-13T14:00:05Z</time>
      </trkpt>
      <trkpt lat="47.56435" lon="-2.82258">
        <time>2018-05-13T14:00:18Z</time>
      </trkpt>
      <trkpt lat="47.56412" lon="-2.82273">
        <time>2018-05-13T14:00:31Z</time>
      </trkpt>
      <trkpt lat="47.56389" lon="-2.82286">
        <time>2018-05-13T14:00:43Z</time>
      </trkpt>
      <trkpt lat="47.56379" lon="-2.82293">
        <time>2018-05-13T14:00:49Z</time>
      </trkpt>
      <trkpt lat="47.56371" lon="-2.82296">
        <time>2018-05-13T14:00:53Z</time>
      </trkpt>
      <trkpt lat="47.56363" lon="-2.82304">
        <time>2018-05-13T14:00:58Z</time>
      </trkpt>
      <trkpt lat="47.56343" lon="-2.82326">
        <time>2018-05-13T14:01:11Z</time>
      </trkpt>
      <trkpt lat="47.56324" lon="-2.82343">
        <time>2018-05-13T14:01:22Z</time>
      </trkpt>
      <trkpt lat="47.56301" lon="-2.82366">
        <time>2018-05-13T14:01:36Z</time>
      </trkpt>
      <trkpt lat="47.56288" lon="-2.82379">
        <time>2018-05-13T14:01:43Z</time>
      </trkpt>
      <trkpt lat="47.5628" lon="-2.82386">
        <time>2018-05-13T14:01:47Z</time>
      </trkpt>
      <trkpt lat="47.56267" lon="-2.82397">
        <time>2018-05-13T14:01:53Z</time>
      </trkpt>
      <trkpt lat="47.56236" lon="-2.82421">
        <time>2018-05-13T14:02:08Z</time>
      </trkpt>
      <trkpt lat="47.56216" lon="-2.82439">
        <time>2018-05-13T14:02:18Z</time>
      </trkpt>
      <trkpt lat="47.5619" lon="-2.82469">
        <time>2018-05-13T14:02:32Z</time>
      </trkpt>
      <trkpt lat="47.56183" lon="-2.82477">
        <time>2018-05-13T14:02:36Z</time>
      </trkpt>
      <trkpt lat="47.5617" lon="-2.82488">
        <time>2018-05-13T14:02:43Z</time>
      </trkpt>
      <trkpt lat="47.56149" lon="-2.82505">
        <time>2018-05-13T14:02:54Z</time>
      </trkpt>
      <trkpt lat="47.56122" lon="-2.82526">
        <time>2018-05-13T14:03:07Z</time>
      </trkpt>
      <trkpt lat="47.56084" lon="-2.8255">
        <time>2018-05-13T14:03:25Z</time>
      </trkpt>
      <trkpt lat="47.56053" lon="-2.82566">
        <time>2018-05-13T14:03:40Z</time>
      </trkpt>
      <trkpt lat="47.56045" lon="-2.8257">
        <time>2018-05-13T14:03:44Z</time>
      </trkpt>
      <trkpt lat="47.56035" lon="-2.82574">
        <time>2018-05-13T14:03:49Z</time>
      </trkpt>
      <trkpt lat="47.56014" lon="-2.82583">
        <time>2018-05-13T14:03:59Z</time>
      </trkpt>
      <trkpt lat="47.55986" lon="-2.82595">
        <time>2018-05-13T14:04:14Z</time>
      </trkpt>
      <trkpt lat="47.55962" lon="-2.82606">
        <time>2018-05-13T14:04:27Z</time>
      </trkpt>
      <trkpt lat="47.55937" lon="-2.82626">
        <time>2018-05-13T14:04:40Z</time>
      </trkpt>
      <trkpt lat="47.5593" lon="-2.8263">
        <time>2018-05-13T14:04:44Z</time>
      </trkpt>
      <trkpt lat="47.55916" lon="-2.82636">
        <time>2018-05-13T14:04:52Z</time>
      </trkpt>
      <trkpt lat="47.55907" lon="-2.82636">
        <time>2018-05-13T14:04:57Z</time>
      </trkpt>
      <trkpt lat="47.5589" lon="-2.82644">
        <time>2018-05-13T14:05:09Z</time>
      </trkpt>
      <trkpt lat="47.55869" lon="-2.82668">
        <time>2018-05-13T14:05:22Z</time>
      </trkpt>
      <trkpt lat="47.55853" lon="-2.82677">
        <time>2018-05-13T14:05:32Z</time>
      </trkpt>
      <trkpt lat="47.55838" lon="-2.82686">
        <time>2018-05-13T14:05:44Z</time>
      </trkpt>
      <trkpt lat="47.55828" lon="-2.82694">
        <time>2018-05-13T14:05:57Z</time>
      </trkpt>
      <trkpt lat="47.55816" lon="-2.82684">
        <time>2018-05-13T14:06:08Z</time>
      </trkpt>
      <trkpt lat="47.5581" lon="-2.82675">
        <time>2018-05-13T14:06:24Z</time>
      </trkpt>
      <trkpt lat="47.55819" lon="-2.82663">
        <time>2018-05-13T14:06:45Z</time>
      </trkpt>
      <trkpt lat="47.55816" lon="-2.82661">
        <time>2018-05-13T14:07:03Z</time>
      </trkpt>
      <trkpt lat="47.55808" lon="-2.82653">
        <time>2018-05-13T14:07:31Z</time>
      </trkpt>
      <trkpt lat="47.55801" lon="-2.82651">
        <time>2018-05-13T14:07:53Z</time>
      </trkpt>
      <trkpt lat="47.5579" lon="-2.82657">
        <time>2018-05-13T14:08:14Z</time>
      </trkpt>
      <trkpt lat="47.55784" lon="-2.82666">
        <time>2018-05-13T14:08:26Z</time>
      </trkpt>
      <trkpt lat="47.55781" lon="-2.82675">
        <time>2018-05-13T14:08:32Z</time>
      </trkpt>
      <trkpt lat="47.55775" lon="-2.82685">
        <time>2018-05-13T14:08:45Z</time>
      </trkpt>
      <trkpt lat="47.55773" lon="-2.82685">
        <time>2018-05-13T14:09:04Z</time>
      </trkpt>
      <trkpt lat="47.55768" lon="-2.82674">
        <time>2018-05-13T14:09:29Z</time>
      </trkpt>
      <trkpt lat="47.5577" lon="-2.82665">
        <time>2018-05-13T14:09:38Z</time>
      </trkpt>
      <trkpt lat="47.55771" lon="-2.82654">
        <time>2018-05-13T14:09:55Z</time>
      </trkpt>
      <trkpt lat="47.5577" lon="-2.82652">
        <time>2018-05-13T14:10:15Z</time>
      </trkpt>
      <trkpt lat="47.55763" lon="-2.82647">
        <time>2018-05-13T14:10:31Z</time>
      </trkpt>
      <trkpt lat="47.55762" lon="-2.82636">
        <time>2018-05-13T14:10:51Z</time>
      </trkpt>
      <trkpt lat="47.55756" lon="-2.82631">
        <time>2018-05-13T14:11:10Z</time>
      </trkpt>
      <trkpt lat="47.55753" lon="-2.82615">
        <time>2018-05-13T14:11:28Z</time>
      </trkpt>
      <trkpt lat="47.55753" lon="-2.82614">
        <time>2018-05-13T14:11:29Z</time>
      </trkpt>
      <trkpt lat="47.55739" lon="-2.8261">
        <time>2018-05-13T14:11:48Z</time>
      </trkpt>
      <trkpt lat="47.55731" lon="-2.82611">
        <time>2018-05-13T14:12:05Z</time>
      </trkpt>
      <trkpt lat="47.55731" lon="-2.82605">
        <time>2018-05-13T14:12:20Z</time>
      </trkpt>
      <trkpt lat="47.55732" lon="-2.82601">
        <time>2018-05-13T14:12:23Z</time>
      </trkpt>
      <trkpt lat="47.55734" lon="-2.82596">
        <time>2018-05-13T14:12:27Z</time>
      </trkpt>
      <trkpt lat="47.5574" lon="-2.82578">
        <time>2018-05-13T14:12:48Z</time>
      </trkpt>
      <trkpt lat="47.55741" lon="-2.82584">
        <time>2018-05-13T14:13:09Z</time>
      </trkpt>
      <trkpt lat="47.55736" lon="-2.82591">
        <time>2018-05-13T14:13:32Z</time>
      </trkpt>
      <trkpt lat="47.55724" lon="-2.82598">
        <time>2018-05-13T14:13:56Z</time>
      </trkpt>
      <trkpt lat="47.5572" lon="-2.8261">
        <time>2018-05-13T14:14:20Z</time>
      </trkpt>
      <trkpt lat="47.55718" lon="-2.82623">
        <time>2018-05-13T14:14:35Z</time>
      </trkpt>
      <trkpt lat="47.55713" lon="-2.82629">
        <time>2018-05-13T14:14:50Z</time>
      </trkpt>
      <trkpt lat="47.55705" lon="-2.82639">
        <time>2018-05-13T14:15:06Z</time>
      </trkpt>
      <trkpt lat="47.55696" lon="-2.82648">
        <time>2018-05-13T14:15:25Z</time>
      </trkpt>
      <trkpt lat="47.55697" lon="-2.82652">
        <time>2018-05-13T14:15:45Z</time>
      </trkpt>
      <trkpt lat="47.55693" lon="-2.82656">
        <time>2018-05-13T14:15:55Z</time>
      </trkpt>
      <trkpt lat="47.55691" lon="-2.82663">
        <time>2018-05-13T14:16:01Z</time>
      </trkpt>
      <trkpt lat="47.55687" lon="-2.82668">
        <time>2018-05-13T14:16:13Z</time>
      </trkpt>
      <trkpt lat="47.55676" lon="-2.82678">
        <time>2018-05-13T14:16:30Z</time>
      </trkpt>
      <trkpt lat="47.55666" lon="-2.82686">
        <time>2018-05-13T14:16:44Z</time>
      </trkpt>
      <trkpt lat="47.55656" lon="-2.82696">
        <time>2018-05-13T14:16:58Z</time>
      </trkpt>
      <trkpt lat="47.55646" lon="-2.82703">
        <time>2018-05-13T14:17:12Z</time>
      </trkpt>
      <trkpt lat="47.5564" lon="-2.82719">
        <time>2018-05-13T14:17:22Z</time>
      </trkpt>
      <trkpt lat="47.55636" lon="-2.8273">
        <time>2018-05-13T14:17:34Z</time>
      </trkpt>
      <trkpt lat="47.55627" lon="-2.82748">
        <time>2018-05-13T14:17:51Z</time>
      </trkpt>
      <trkpt lat="47.55623" lon="-2.82754">
        <time>2018-05-13T14:17:56Z</time>
      </trkpt>
      <trkpt lat="47.55617" lon="-2.82765">
        <time>2018-05-13T14:18:03Z</time>
      </trkpt>
      <trkpt lat="47.55614" lon="-2.82769">
        <time>2018-05-13T14:18:06Z</time>
      </trkpt>
      <trkpt lat="47.55604" lon="-2.82789">
        <time>2018-05-13T14:18:20Z</time>
      </trkpt>
      <trkpt lat="47.55599" lon="-2.82803">
        <time>2018-05-13T14:18:31Z</time>
      </trkpt>
      <trkpt lat="47.55592" lon="-2.82819">
        <time>2018-05-13T14:18:43Z</time>
      </trkpt>
      <trkpt lat="47.55578" lon="-2.82834">
        <time>2018-05-13T14:18:55Z</time>
      </trkpt>
      <trkpt lat="47.5557" lon="-2.82847">
        <time>2018-05-13T14:19:08Z</time>
      </trkpt>
      <trkpt lat="47.55572" lon="-2.82836">
        <time>2018-05-13T14:19:27Z</time>
      </trkpt>
      <trkpt lat="47.55573" lon="-2.82819">
        <time>2018-05-13T14:19:47Z</time>
      </trkpt>
      <trkpt lat="47.55577" lon="-2.828">
        <time>2018-05-13T14:20:09Z</time>
      </trkpt>
      <trkpt lat="47.55577" lon="-2.82794">
        <time>2018-05-13T14:20:27Z</time>
      </trkpt>
      <trkpt lat="47.55581" lon="-2.82786">
        <time>2018-05-13T14:20:36Z</time>
      </trkpt>
      <trkpt lat="47.55591" lon="-2.82778">
        <time>2018-05-13T14:20:42Z</time>
      </trkpt>
      <trkpt lat="47.55606" lon="-2.82762">
        <time>2018-05-13T14:20:49Z</time>
      </trkpt>
      <trkpt lat="47.55614" lon="-2.82751">
        <time>2018-05-13T14:20:53Z</time>
      </trkpt>
      <trkpt lat="47.5562" lon="-2.82746">
        <time>2018-05-13T14:21:04Z</time>
      </trkpt>
      <trkpt lat="47.55622" lon="-2.82758">
        <time>2018-05-13T14:21:26Z</time>
      </trkpt>
      <trkpt lat="47.5562" lon="-2.82772">
        <time>2018-05-13T14:21:41Z</time>
      </trkpt>
      <trkpt lat="47.5562" lon="-2.82775">
        <time>2018-05-13T14:21:51Z</time>
      </trkpt>
      <trkpt lat="47.5563" lon="-2.8277">
        <time>2018-05-13T14:21:58Z</time>
      </trkpt>
      <trkpt lat="47.55637" lon="-2.82748">
        <time>2018-05-13T14:22:10Z</time>
      </trkpt>
      <trkpt lat="47.55641" lon="-2.82749">
        <time>2018-05-13T14:22:29Z</time>
      </trkpt>
      <trkpt lat="47.5565" lon="-2.82734">
        <time>2018-05-13T14:22:52Z</time>
      </trkpt>
      <trkpt lat="47.55652" lon="-2.82737">
        <time>2018-05-13T14:23:07Z</time>
      </trkpt>
      <trkpt lat="47.5565" lon="-2.82751">
        <time>2018-05-13T14:23:21Z</time>
      </trkpt>
      <trkpt lat="47.55649" lon="-2.82755">
        <time>2018-05-13T14:23:24Z</time>
      </trkpt>
      <trkpt lat="47.55648" lon="-2.82775">
        <time>2018-05-13T14:23:38Z</time>
      </trkpt>
      <trkpt lat="47.55646" lon="-2.82791">
        <time>2018-05-13T14:23:53Z</time>
      </trkpt>
      <trkpt lat="47.55644" lon="-2.82791">
        <time>2018-05-13T14:24:03Z</time>
      </trkpt>
      <trkpt lat="47.55649" lon="-2.82771">
        <time>2018-05-13T14:24:14Z</time>
      </trkpt>
      <trkpt lat="47.55658" lon="-2.82768">
        <time>2018-05-13T14:24:32Z</time>
      </trkpt>
      <trkpt lat="47.55654" lon="-2.82772">
        <time>2018-05-13T14:24:50Z</time>
      </trkpt>
      <trkpt lat="47.55649" lon="-2.82785">
        <time>2018-05-13T14:25:13Z</time>
      </trkpt>
      <trkpt lat="47.55649" lon="-2.82784">
        <time>2018-05-13T14:25:36Z</time>
      </trkpt>
      <trkpt lat="47.55635" lon="-2.82785">
        <time>2018-05-13T14:25:58Z</time>
      </trkpt>
      <trkpt lat="47.55629" lon="-2.82778">
        <time>2018-05-13T14:26:21Z</time>
      </trkpt>
      <trkpt lat="47.55624" lon="-2.82779">
        <time>2018-05-13T14:26:48Z</time>
      </trkpt>
      <trkpt lat="47.55619" lon="-2.8279">
        <time>2018-05-13T14:27:11Z</time>
      </trkpt>
      <trkpt lat="47.55608" lon="-2.8279">
        <time>2018-05-13T14:27:30Z</time>
      </trkpt>
      <trkpt lat="47.55603" lon="-2.82789">
        <time>2018-05-13T14:27:34Z</time>
      </trkpt>
      <trkpt lat="47.55599" lon="-2.82789">
        <time>2018-05-13T14:27:37Z</time>
      </trkpt>
      <trkpt lat="47.5559" lon="-2.8279">
        <time>2018-05-13T14:27:45Z</time>
      </trkpt>
      <trkpt lat="47.55574" lon="-2.82798">
        <time>2018-05-13T14:28:01Z</time>
      </trkpt>
      <trkpt lat="47.55572" lon="-2.82799">
        <time>2018-05-13T14:28:03Z</time>
      </trkpt>
      <trkpt lat="47.55566" lon="-2.82804">
        <time>2018-05-13T14:28:09Z</time>
      </trkpt>
      <trkpt lat="47.5556" lon="-2.82819">
        <time>2018-05-13T14:28:25Z</time>
      </trkpt>
      <trkpt lat="47.55556" lon="-2.82827">
        <time>2018-05-13T14:28:36Z</time>
      </trkpt>
      <trkpt lat="47.55554" lon="-2.82834">
        <time>2018-05-13T14:28:40Z</time>
      </trkpt>
      <trkpt lat="47.55541" lon="-2.82852">
        <time>2018-05-13T14:28:56Z</time>
      </trkpt>
      <trkpt lat="47.55536" lon="-2.82863">
        <time>2018-05-13T14:29:19Z</time>
      </trkpt>
      <trkpt lat="47.55534" lon="-2.82871">
        <time>2018-05-13T14:29:37Z</time>
      </trkpt>
      <trkpt lat="47.55522" lon="-2.82887">
        <time>2018-05-13T14:29:48Z</time>
      </trkpt>
      <trkpt lat="47.55511" lon="-2.82898">
        <time>2018-05-13T14:29:57Z</time>
      </trkpt>
      <trkpt lat="47.55506" lon="-2.82881">
        <time>2018-05-13T14:30:07Z</time>
      </trkpt>
      <trkpt lat="47.55511" lon="-2.82874">
        <time>2018-05-13T14:30:12Z</time>
      </trkpt>
      <trkpt lat="47.55515" lon="-2.82873">
        <time>2018-05-13T14:30:30Z</time>
      </trkpt>
      <trkpt lat="47.55514" lon="-2.82876">
        <time>2018-05-13T14:30:32Z</time>
      </trkpt>
      <trkpt lat="47.55507" lon="-2.82882">
        <time>2018-05-13T14:30:37Z</time>
      </trkpt>
      <trkpt lat="47.55502" lon="-2.82877">
        <time>2018-05-13T14:30:41Z</time>
      </trkpt>
      <trkpt lat="47.55502" lon="-2.82872">
        <time>2018-05-13T14:30:43Z</time>
      </trkpt>
      <trkpt lat="47.55509" lon="-2.82863">
        <time>2018-05-13T14:30:49Z</time>
      </trkpt>
      <trkpt lat="47.55515" lon="-2.82852">
        <time>2018-05-13T14:31:10Z</time>
      </trkpt>
      <trkpt lat="47.55518" lon="-2.82855">
        <time>2018-05-13T14:31:28Z</time>
      </trkpt>
      <trkpt lat="47.55515" lon="-2.82851">
        <time>2018-05-13T14:31:35Z</time>
      </trkpt>
      <trkpt lat="47.55522" lon="-2.82842">
        <time>2018-05-13T14:31:49Z</time>
      </trkpt>
      <trkpt lat="47.55525" lon="-2.82858">
        <time>2018-05-13T14:32:09Z</time>
      </trkpt>
      <trkpt lat="47.55525" lon="-2.82862">
        <time>2018-05-13T14:32:12Z</time>
      </trkpt>
      <trkpt lat="47.55517" lon="-2.82889">
        <time>2018-05-13T14:32:39Z</time>
      </trkpt>
      <trkpt lat="47.55511" lon="-2.82902">
        <time>2018-05-13T14:32:49Z</time>
      </trkpt>
      <trkpt lat="47.55508" lon="-2.8291">
        <time>2018-05-13T14:32:53Z</time>
      </trkpt>
      <trkpt lat="47.55507" lon="-2.82919">
        <time>2018-05-13T14:32:57Z</time>
      </trkpt>
      <trkpt lat="47.55505" lon="-2.82939">
        <time>2018-05-13T14:33:07Z</time>
      </trkpt>
      <trkpt lat="47.55503" lon="-2.82955">
        <time>2018-05-13T14:33:14Z</time>
      </trkpt>
      <trkpt lat="47.555" lon="-2.82977">
        <time>2018-05-13T14:33:24Z</time>
      </trkpt>
      <trkpt lat="47.55498" lon="-2.82988">
        <time>2018-05-13T14:33:28Z</time>
      </trkpt>
      <trkpt lat="47.55496" lon="-2.82998">
        <time>2018-05-13T14:33:32Z</time>
      </trkpt>
      <trkpt lat="47.55493" lon="-2.83016">
        <time>2018-05-13T14:33:39Z</time>
      </trkpt>
      <trkpt lat="47.55492" lon="-2.83027">
        <time>2018-05-13T14:33:43Z</time>
      </trkpt>
      <trkpt lat="47.55489" lon="-2.8306">
        <time>2018-05-13T14:33:57Z</time>
      </trkpt>
      <trkpt lat="47.55485" lon="-2.83078">
        <time>2018-05-13T14:34:05Z</time>
      </trkpt>
      <trkpt lat="47.55484" lon="-2.83082">
        <time>2018-05-13T14:34:07Z</time>
      </trkpt>
      <trkpt lat="47.55481" lon="-2.83089">
        <time>2018-05-13T14:34:11Z</time>
      </trkpt>
      <trkpt lat="47.5548" lon="-2.83098">
        <time>2018-05-13T14:34:16Z</time>
      </trkpt>
      <trkpt lat="47.55479" lon="-2.83129">
        <time>2018-05-13T14:34:29Z</time>
      </trkpt>
      <trkpt lat="47.55477" lon="-2.83147">
        <time>2018-05-13T14:34:36Z</time>
      </trkpt>
      <trkpt lat="47.55471" lon="-2.83144">
        <time>2018-05-13T14:34:46Z</time>
      </trkpt>
      <trkpt lat="47.55476" lon="-2.83145">
        <time>2018-05-13T14:34:55Z</time>
      </trkpt>
      <trkpt lat="47.55487" lon="-2.83157">
        <time>2018-05-13T14:35:08Z</time>
      </trkpt>
      <trkpt lat="47.5549" lon="-2.83165">
        <time>2018-05-13T14:35:14Z</time>
      </trkpt>
      <trkpt lat="47.55492" lon="-2.83167">
        <time>2018-05-13T14:35:16Z</time>
      </trkpt>
      <trkpt lat="47.55492" lon="-2.8317">
        <time>2018-05-13T14:35:19Z</time>
      </trkpt>
      <trkpt lat="47.5549" lon="-2.83157">
        <time>2018-05-13T14:35:32Z</time>
      </trkpt>
      <trkpt lat="47.55492" lon="-2.83161">
        <time>2018-05-13T14:35:49Z</time>
      </trkpt>
      <trkpt lat="47.55492" lon="-2.83164">
        <time>2018-05-13T14:35:52Z</time>
      </trkpt>
      <trkpt lat="47.55486" lon="-2.83157">
        <time>2018-05-13T14:36:03Z</time>
      </trkpt>
      <trkpt lat="47.55487" lon="-2.83155">
        <time>2018-05-13T14:36:05Z</time>
      </trkpt>
      <trkpt lat="47.55491" lon="-2.83145">
        <time>2018-05-13T14:36:11Z</time>
      </trkpt>
      <trkpt lat="47.55495" lon="-2.83133">
        <time>2018-05-13T14:36:18Z</time>
      </trkpt>
      <trkpt lat="47.55503" lon="-2.8311">
        <time>2018-05-13T14:36:30Z</time>
      </trkpt>
      <trkpt lat="47.55504" lon="-2.83107">
        <time>2018-05-13T14:36:32Z</time>
      </trkpt>
      <trkpt lat="47.55512" lon="-2.83084">
        <time>2018-05-13T14:36:47Z</time>
      </trkpt>
      <trkpt lat="47.55514" lon="-2.83079">
        <time>2018-05-13T14:36:50Z</time>
      </trkpt>
      <trkpt lat="47.55516" lon="-2.83075">
        <time>2018-05-13T14:36:53Z</time>
      </trkpt>
      <trkpt lat="47.55525" lon="-2.83052">
        <time>2018-05-13T14:37:11Z</time>
      </trkpt>
      <trkpt lat="47.55531" lon="-2.83033">
        <time>2018-05-13T14:37:33Z</time>
      </trkpt>
      <trkpt lat="47.5554" lon="-2.8301">
        <time>2018-05-13T14:37:56Z</time>
      </trkpt>
      <trkpt lat="47.55537" lon="-2.82999">
        <time>2018-05-13T14:38:15Z</time>
      </trkpt>
      <trkpt lat="47.55531" lon="-2.83012">
        <time>2018-05-13T14:38:38Z</time>
      </trkpt>
      <trkpt lat="47.55528" lon="-2.83025">
        <time>2018-05-13T14:38:52Z</time>
      </trkpt>
      <trkpt lat="47.55525" lon="-2.83042">
        <time>2018-05-13T14:39:00Z</time>
      </trkpt>
      <trkpt lat="47.5552" lon="-2.83066">
        <time>2018-05-13T14:39:19Z</time>
      </trkpt>
      <trkpt lat="47.55519" lon="-2.83071">
        <time>2018-05-13T14:39:22Z</time>
      </trkpt>
      <trkpt lat="47.55518" lon="-2.83075">
        <time>2018-05-13T14:39:24Z</time>
      </trkpt>
      <trkpt lat="47.55516" lon="-2.83093">
        <time>2018-05-13T14:39:31Z</time>
      </trkpt>
      <trkpt lat="47.5552" lon="-2.83105">
        <time>2018-05-13T14:39:37Z</time>
      </trkpt>
      <trkpt lat="47.55516" lon="-2.83129">
        <time>2018-05-13T14:39:51Z</time>
      </trkpt>
      <trkpt lat="47.55514" lon="-2.83155">
        <time>2018-05-13T14:40:03Z</time>
      </trkpt>
      <trkpt lat="47.5551" lon="-2.83192">
        <time>2018-05-13T14:40:18Z</time>
      </trkpt>
      <trkpt lat="47.55508" lon="-2.83227">
        <time>2018-05-13T14:40:32Z</time>
      </trkpt>
      <trkpt lat="47.55505" lon="-2.83269">
        <time>2018-05-13T14:40:48Z</time>
      </trkpt>
      <trkpt lat="47.55505" lon="-2.83281">
        <time>2018-05-13T14:40:53Z</time>
      </trkpt>
      <trkpt lat="47.55505" lon="-2.83288">
        <time>2018-05-13T14:40:56Z</time>
      </trkpt>
      <trkpt lat="47.55504" lon="-2.83333">
        <time>2018-05-13T14:41:16Z</time>
      </trkpt>
      <trkpt lat="47.55504" lon="-2.83369">
        <time>2018-05-13T14:41:32Z</time>
      </trkpt>
      <trkpt lat="47.55504" lon="-2.83371">
        <time>2018-05-13T14:41:33Z</time>
      </trkpt>
      <trkpt lat="47.55504" lon="-2.83383">
        <time>2018-05-13T14:41:40Z</time>
      </trkpt>
      <trkpt lat="47.55504" lon="-2.83401">
        <time>2018-05-13T14:41:50Z</time>
      </trkpt>
      <trkpt lat="47.55505" lon="-2.83416">
        <time>2018-05-13T14:41:58Z</time>
      </trkpt>
      <trkpt lat="47.55505" lon="-2.83448">
        <time>2018-05-13T14:42:15Z</time>
      </trkpt>
      <trkpt lat="47.55505" lon="-2.83463">
        <time>2018-05-13T14:42:23Z</time>
      </trkpt>
      <trkpt lat="47.55506" lon="-2.83471">
        <time>2018-05-13T14:42:28Z</time>
      </trkpt>
      <trkpt lat="47.55506" lon="-2.83474">
        <time>2018-05-13T14:42:30Z</time>
      </trkpt>
      <trkpt lat="47.5551" lon="-2.83498">
        <time>2018-05-13T14:42:48Z</time>
      </trkpt>
      <trkpt lat="47.55515" lon="-2.83514">
        <time>2018-05-13T14:43:04Z</time>
      </trkpt>
      <trkpt lat="47.55518" lon="-2.83534">
        <time>2018-05-13T14:43:17Z</time>
      </trkpt>
      <trkpt lat="47.5552" lon="-2.83553">
        <time>2018-05-13T14:43:32Z</time>
      </trkpt>
      <trkpt lat="47.55524" lon="-2.83577">
        <time>2018-05-13T14:43:48Z</time>
      </trkpt>
      <trkpt lat="47.55525" lon="-2.83584">
        <time>2018-05-13T14:43:52Z</time>
      </trkpt>
      <trkpt lat="47.5553" lon="-2.83608">
        <time>2018-05-13T14:44:08Z</time>
      </trkpt>
      <trkpt lat="47.55534" lon="-2.83633">
        <time>2018-05-13T14:44:25Z</time>
      </trkpt>
      <trkpt lat="47.55537" lon="-2.8366">
        <time>2018-05-13T14:44:40Z</time>
      </trkpt>
      <trkpt lat="47.55545" lon="-2.83688">
        <time>2018-05-13T14:44:57Z</time>
      </trkpt>
      <trkpt lat="47.55548" lon="-2.83711">
        <time>2018-05-13T14:45:15Z</time>
      </trkpt>
      <trkpt lat="47.55552" lon="-2.8374">
        <time>2018-05-13T14:45:32Z</time>
      </trkpt>
      <trkpt lat="47.5556" lon="-2.83774">
        <time>2018-05-13T14:45:51Z</time>
      </trkpt>
      <trkpt lat="47.55566" lon="-2.83805">
        <time>2018-05-13T14:46:09Z</time>
      </trkpt>
      <trkpt lat="47.55573" lon="-2.83826">
        <time>2018-05-13T14:46:25Z</time>
      </trkpt>
      <trkpt lat="47.55572" lon="-2.83851">
        <time>2018-05-13T14:46:40Z</time>
      </trkpt>
      <trkpt lat="47.55572" lon="-2.83882">
        <time>2018-05-13T14:46:56Z</time>
      </trkpt>
      <trkpt lat="47.55573" lon="-2.83915">
        <time>2018-05-13T14:47:14Z</time>
      </trkpt>
      <trkpt lat="47.55571" lon="-2.83947">
        <time>2018-05-13T14:47:30Z</time>
      </trkpt>
      <trkpt lat="47.55564" lon="-2.83995">
        <time>2018-05-13T14:47:51Z</time>
      </trkpt>
      <trkpt lat="47.55556" lon="-2.84027">
        <time>2018-05-13T14:48:08Z</time>
      </trkpt>
      <trkpt lat="47.55556" lon="-2.84028">
        <time>2018-05-13T14:48:09Z</time>
      </trkpt>
      <trkpt lat="47.55545" lon="-2.84051">
        <time>2018-05-13T14:48:28Z</time>
      </trkpt>
      <trkpt lat="47.55538" lon="-2.84066">
        <time>2018-05-13T14:48:42Z</time>
      </trkpt>
      <trkpt lat="47.55528" lon="-2.84082">
        <time>2018-05-13T14:49:02Z</time>
      </trkpt>
      <trkpt lat="47.55518" lon="-2.841">
        <time>2018-05-13T14:49:27Z</time>
      </trkpt>
      <trkpt lat="47.55506" lon="-2.84116">
        <time>2018-05-13T14:49:52Z</time>
      </trkpt>
      <trkpt lat="47.555" lon="-2.8412">
        <time>2018-05-13T14:50:00Z</time>
      </trkpt>
      <trkpt lat="47.55498" lon="-2.84124">
        <time>2018-05-13T14:50:03Z</time>
      </trkpt>
      <trkpt lat="47.55496" lon="-2.8413">
        <time>2018-05-13T14:50:07Z</time>
      </trkpt>
      <trkpt lat="47.55494" lon="-2.84134">
        <time>2018-05-13T14:50:10Z</time>
      </trkpt>
      <trkpt lat="47.55491" lon="-2.84138">
        <time>2018-05-13T14:50:14Z</time>
      </trkpt>
      <trkpt lat="47.55488" lon="-2.84144">
        <time>2018-05-13T14:50:18Z</time>
      </trkpt>
      <trkpt lat="47.55476" lon="-2.84166">
        <time>2018-05-13T14:50:33Z</time>
      </trkpt>
      <trkpt lat="47.55472" lon="-2.84172">
        <time>2018-05-13T14:50:37Z</time>
      </trkpt>
      <trkpt lat="47.55459" lon="-2.842">
        <time>2018-05-13T14:50:53Z</time>
      </trkpt>
      <trkpt lat="47.55458" lon="-2.84203">
        <time>2018-05-13T14:50:55Z</time>
      </trkpt>
      <trkpt lat="47.55456" lon="-2.84206">
        <time>2018-05-13T14:50:57Z</time>
      </trkpt>
      <trkpt lat="47.55447" lon="-2.8423">
        <time>2018-05-13T14:51:08Z</time>
      </trkpt>
      <trkpt lat="47.55434" lon="-2.84257">
        <time>2018-05-13T14:51:20Z</time>
      </trkpt>
      <trkpt lat="47.55432" lon="-2.84262">
        <time>2018-05-13T14:51:22Z</time>
      </trkpt>
      <trkpt lat="47.55426" lon="-2.84271">
        <time>2018-05-13T14:51:29Z</time>
      </trkpt>
      <trkpt lat="47.55414" lon="-2.84294">
        <time>2018-05-13T14:51:50Z</time>
      </trkpt>
      <trkpt lat="47.55414" lon="-2.84295">
        <time>2018-05-13T14:51:51Z</time>
      </trkpt>
      <trkpt lat="47.554" lon="-2.84311">
        <time>2018-05-13T14:52:11Z</time>
      </trkpt>
      <trkpt lat="47.5539" lon="-2.84316">
        <time>2018-05-13T14:52:26Z</time>
      </trkpt>
      <trkpt lat="47.55374" lon="-2.8433">
        <time>2018-05-13T14:52:40Z</time>
      </trkpt>
      <trkpt lat="47.55369" lon="-2.84336">
        <time>2018-05-13T14:52:46Z</time>
      </trkpt>
      <trkpt lat="47.5536" lon="-2.84348">
        <time>2018-05-13T14:53:03Z</time>
      </trkpt>
      <trkpt lat="47.55352" lon="-2.84357">
        <time>2018-05-13T14:53:17Z</time>
      </trkpt>
      <trkpt lat="47.55349" lon="-2.84362">
        <time>2018-05-13T14:53:22Z</time>
      </trkpt>
      <trkpt lat="47.55345" lon="-2.84368">
        <time>2018-05-13T14:53:27Z</time>
      </trkpt>
      <trkpt lat="47.55334" lon="-2.84381">
        <time>2018-05-13T14:53:46Z</time>
      </trkpt>
      <trkpt lat="47.55317" lon="-2.84388">
        <time>2018-05-13T14:54:10Z</time>
      </trkpt>
      <trkpt lat="47.55304" lon="-2.84385">
        <time>2018-05-13T14:54:25Z</time>
      </trkpt>
      <trkpt lat="47.55292" lon="-2.84376">
        <time>2018-05-13T14:54:38Z</time>
      </trkpt>
      <trkpt lat="47.55289" lon="-2.84374">
        <time>2018-05-13T14:54:40Z</time>
      </trkpt>
      <trkpt lat="47.55281" lon="-2.84367">
        <time>2018-05-13T14:54:47Z</time>
      </trkpt>
      <trkpt lat="47.55274" lon="-2.84361">
        <time>2018-05-13T14:54:54Z</time>
      </trkpt>
      <trkpt lat="47.55253" lon="-2.84349">
        <time>2018-05-13T14:55:13Z</time>
      </trkpt>
      <trkpt lat="47.55242" lon="-2.84338">
        <time>2018-05-13T14:55:24Z</time>
      </trkpt>
      <trkpt lat="47.55234" lon="-2.84327">
        <time>2018-05-13T14:55:33Z</time>
      </trkpt>
      <trkpt lat="47.55233" lon="-2.84325">
        <time>2018-05-13T14:55:35Z</time>
      </trkpt>
      <trkpt lat="47.55215" lon="-2.8431">
        <time>2018-05-13T14:55:50Z</time>
      </trkpt>
      <trkpt lat="47.5521" lon="-2.84307">
        <time>2018-05-13T14:55:55Z</time>
      </trkpt>
      <trkpt lat="47.55194" lon="-2.84297">
        <time>2018-05-13T14:56:08Z</time>
      </trkpt>
      <trkpt lat="47.55198" lon="-2.84287">
        <time>2018-05-13T14:56:20Z</time>
      </trkpt>
      <trkpt lat="47.55221" lon="-2.84277">
        <time>2018-05-13T14:56:36Z</time>
      </trkpt>
      <trkpt lat="47.55225" lon="-2.84276">
        <time>2018-05-13T14:56:38Z</time>
      </trkpt>
      <trkpt lat="47.55232" lon="-2.84274">
        <time>2018-05-13T14:56:43Z</time>
      </trkpt>
      <trkpt lat="47.5525" lon="-2.84265">
        <time>2018-05-13T14:56:56Z</time>
      </trkpt>
      <trkpt lat="47.55255" lon="-2.84262">
        <time>2018-05-13T14:57:00Z</time>
      </trkpt>
      <trkpt lat="47.55284" lon="-2.84247">
        <time>2018-05-13T14:57:20Z</time>
      </trkpt>
      <trkpt lat="47.55308" lon="-2.84237">
        <time>2018-05-13T14:57:37Z</time>
      </trkpt>
      <trkpt lat="47.55308" lon="-2.84237">
        <time>2018-05-13T14:57:38Z</time>
      </trkpt>
      <trkpt lat="47.55308" lon="-2.84233">
        <time>2018-05-13T14:57:40Z</time>
      </trkpt>
      <trkpt lat="47.55303" lon="-2.84227">
        <time>2018-05-13T14:57:45Z</time>
      </trkpt>
      <trkpt lat="47.55287" lon="-2.84207">
        <time>2018-05-13T14:58:01Z</time>
      </trkpt>
      <trkpt lat="47.55284" lon="-2.84204">
        <time>2018-05-13T14:58:03Z</time>
      </trkpt>
      <trkpt lat="47.55267" lon="-2.84179">
        <time>2018-05-13T14:58:23Z</time>
      </trkpt>
      <trkpt lat="47.55258" lon="-2.84163">
        <time>2018-05-13T14:58:38Z</time>
      </trkpt>
      <trkpt lat="47.55245" lon="-2.84149">
        <time>2018-05-13T14:58:56Z</time>
      </trkpt>
      <trkpt lat="47.5524" lon="-2.84146">
        <time>2018-05-13T14:59:01Z</time>
      </trkpt>
      <trkpt lat="47.55238" lon="-2.84145">
        <time>2018-05-13T14:59:03Z</time>
      </trkpt>
      <trkpt lat="47.55222" lon="-2.84133">
        <time>2018-05-13T14:59:22Z</time>
      </trkpt>
      <trkpt lat="47.55211" lon="-2.84122">
        <time>2018-05-13T14:59:39Z</time>
      </trkpt>
      <trkpt lat="47.55195" lon="-2.84111">
        <time>2018-05-13T14:59:57Z</time>
      </trkpt>
      <trkpt lat="47.55183" lon="-2.84103">
        <time>2018-05-13T15:00:11Z</time>
      </trkpt>
      <trkpt lat="47.55163" lon="-2.84099">
        <time>2018-05-13T15:00:33Z</time>
      </trkpt>
      <trkpt lat="47.55149" lon="-2.84104">
        <time>2018-05-13T15:00:54Z</time>
      </trkpt>
      <trkpt lat="47.55129" lon="-2.84107">
        <time>2018-05-13T15:01:13Z</time>
      </trkpt>
      <trkpt lat="47.55112" lon="-2.84107">
        <time>2018-05-13T15:01:30Z</time>
      </trkpt>
      <trkpt lat="47.55098" lon="-2.84108">
        <time>2018-05-13T15:01:47Z</time>
      </trkpt>
      <trkpt lat="47.55102" lon="-2.8411">
        <time>2018-05-13T15:01:54Z</time>
      </trkpt>
      <trkpt lat="47.55106" lon="-2.84115">
        <time>2018-05-13T15:01:59Z</time>
      </trkpt>
      <trkpt lat="47.55117" lon="-2.84127">
        <time>2018-05-13T15:02:12Z</time>
      </trkpt>
      <trkpt lat="47.55134" lon="-2.84145">
        <time>2018-05-13T15:02:34Z</time>
      </trkpt>
      <trkpt lat="47.55141" lon="-2.84149">
        <time>2018-05-13T15:02:43Z</time>
      </trkpt>
      <trkpt lat="47.55155" lon="-2.84156">
        <time>2018-05-13T15:03:00Z</time>
      </trkpt>
      <trkpt lat="47.55169" lon="-2.84163">
        <time>2018-05-13T15:03:21Z</time>
      </trkpt>
      <trkpt lat="47.55184" lon="-2.84161">
        <time>2018-05-13T15:03:42Z</time>
      </trkpt>
      <trkpt lat="47.55199" lon="-2.84155">
        <time>2018-05-13T15:04:02Z</time>
      </trkpt>
      <trkpt lat="47.55217" lon="-2.84153">
        <time>2018-05-13T15:04:20Z</time>
      </trkpt>
      <trkpt lat="47.5523" lon="-2.84147">
        <time>2018-05-13T15:04:37Z</time>
      </trkpt>
      <trkpt lat="47.55232" lon="-2.84145">
        <time>2018-05-13T15:04:39Z</time>
      </trkpt>
      <trkpt lat="47.55237" lon="-2.84138">
        <time>2018-05-13T15:04:47Z</time>
      </trkpt>
      <trkpt lat="47.5524" lon="-2.84135">
        <time>2018-05-13T15:04:50Z</time>
      </trkpt>
      <trkpt lat="47.55245" lon="-2.84127">
        <time>2018-05-13T15:04:57Z</time>
      </trkpt>
      <trkpt lat="47.5525" lon="-2.84122">
        <time>2018-05-13T15:05:01Z</time>
      </trkpt>
      <trkpt lat="47.55265" lon="-2.8411">
        <time>2018-05-13T15:05:18Z</time>
      </trkpt>
      <trkpt lat="47.55268" lon="-2.84102">
        <time>2018-05-13T15:05:25Z</time>
      </trkpt>
      <trkpt lat="47.55265" lon="-2.84086">
        <time>2018-05-13T15:05:39Z</time>
      </trkpt>
      <trkpt lat="47.55265" lon="-2.84083">
        <time>2018-05-13T15:05:41Z</time>
      </trkpt>
      <trkpt lat="47.55261" lon="-2.84075">
        <time>2018-05-13T15:05:47Z</time>
      </trkpt>
      <trkpt lat="47.55255" lon="-2.84068">
        <time>2018-05-13T15:05:52Z</time>
      </trkpt>
      <trkpt lat="47.55252" lon="-2.84066">
        <time>2018-05-13T15:05:55Z</time>
      </trkpt>
      <trkpt lat="47.55236" lon="-2.84059">
        <time>2018-05-13T15:06:09Z</time>
      </trkpt>
      <trkpt lat="47.55224" lon="-2.84053">
        <time>2018-05-13T15:06:21Z</time>
      </trkpt>
      <trkpt lat="47.55207" lon="-2.84051">
        <time>2018-05-13T15:06:40Z</time>
      </trkpt>
      <trkpt lat="47.55189" lon="-2.84051">
        <time>2018-05-13T15:07:04Z</time>
      </trkpt>
      <trkpt lat="47.55174" lon="-2.84051">
        <time>2018-05-13T15:07:28Z</time>
      </trkpt>
      <trkpt lat="47.55159" lon="-2.84047">
        <time>2018-05-13T15:07:50Z</time>
      </trkpt>
      <trkpt lat="47.55145" lon="-2.84043">
        <time>2018-05-13T15:08:08Z</time>
      </trkpt>
      <trkpt lat="47.55143" lon="-2.84044">
        <time>2018-05-13T15:08:10Z</time>
      </trkpt>
      <trkpt lat="47.55141" lon="-2.84044">
        <time>2018-05-13T15:08:12Z</time>
      </trkpt>
      <trkpt lat="47.55131" lon="-2.84046">
        <time>2018-05-13T15:08:21Z</time>
      </trkpt>
      <trkpt lat="47.55125" lon="-2.84048">
        <time>2018-05-13T15:08:26Z</time>
      </trkpt>
      <trkpt lat="47.55113" lon="-2.8405">
        <time>2018-05-13T15:08:38Z</time>
      </trkpt>
      <trkpt lat="47.55105" lon="-2.8405">
        <time>2018-05-13T15:08:45Z</time>
      </trkpt>
      <trkpt lat="47.55081" lon="-2.84053">
        <time>2018-05-13T15:09:06Z</time>
      </trkpt>
      <trkpt lat="47.55077" lon="-2.84053">
        <time>2018-05-13T15:09:11Z</time>
      </trkpt>
      <trkpt lat="47.55071" lon="-2.84052">
        <time>2018-05-13T15:09:16Z</time>
      </trkpt>
      <trkpt lat="47.55047" lon="-2.84056">
        <time>2018-05-13T15:09:34Z</time>
      </trkpt>
      <trkpt lat="47.55013" lon="-2.8406">
        <time>2018-05-13T15:09:56Z</time>
      </trkpt>
      <trkpt lat="47.55016" lon="-2.84063">
        <time>2018-05-13T15:10:06Z</time>
      </trkpt>
      <trkpt lat="47.55023" lon="-2.84068">
        <time>2018-05-13T15:10:13Z</time>
      </trkpt>
      <trkpt lat="47.55027" lon="-2.84073">
        <time>2018-05-13T15:10:17Z</time>
      </trkpt>
      <trkpt lat="47.55045" lon="-2.84095">
        <time>2018-05-13T15:10:37Z</time>
      </trkpt>
      <trkpt lat="47.55051" lon="-2.84101">
        <time>2018-05-13T15:10:43Z</time>
      </trkpt>
      <trkpt lat="47.55058" lon="-2.84109">
        <time>2018-05-13T15:10:51Z</time>
      </trkpt>
      <trkpt lat="47.55066" lon="-2.84119">
        <time>2018-05-13T15:11:01Z</time>
      </trkpt>
      <trkpt lat="47.55071" lon="-2.84123">
        <time>2018-05-13T15:11:06Z</time>
      </trkpt>
      <trkpt lat="47.55089" lon="-2.84143">
        <time>2018-05-13T15:11:27Z</time>
      </trkpt>
      <trkpt lat="47.55093" lon="-2.84146">
        <time>2018-05-13T15:11:33Z</time>
      </trkpt>
      <trkpt lat="47.55095" lon="-2.84148">
        <time>2018-05-13T15:11:35Z</time>
      </trkpt>
      <trkpt lat="47.55109" lon="-2.84162">
        <time>2018-05-13T15:11:52Z</time>
      </trkpt>
      <trkpt lat="47.55117" lon="-2.84167">
        <time>2018-05-13T15:12:01Z</time>
      </trkpt>
      <trkpt lat="47.55131" lon="-2.84169">
        <time>2018-05-13T15:12:18Z</time>
      </trkpt>
      <trkpt lat="47.55134" lon="-2.8417">
        <time>2018-05-13T15:12:21Z</time>
      </trkpt>
      <trkpt lat="47.5515" lon="-2.84169">
        <time>2018-05-13T15:12:41Z</time>
      </trkpt>
      <trkpt lat="47.55169" lon="-2.84168">
        <time>2018-05-13T15:13:05Z</time>
      </trkpt>
      <trkpt lat="47.55178" lon="-2.84165">
        <time>2018-05-13T15:13:22Z</time>
      </trkpt>
      <trkpt lat="47.55191" lon="-2.84165">
        <time>2018-05-13T15:13:38Z</time>
      </trkpt>
      <trkpt lat="47.55193" lon="-2.84162">
        <time>2018-05-13T15:13:54Z</time>
      </trkpt>
      <trkpt lat="47.55189" lon="-2.84163">
        <time>2018-05-13T15:13:58Z</time>
      </trkpt>
      <trkpt lat="47.55184" lon="-2.84165">
        <time>2018-05-13T15:14:02Z</time>
      </trkpt>
      <trkpt lat="47.55158" lon="-2.84171">
        <time>2018-05-13T15:14:24Z</time>
      </trkpt>
      <trkpt lat="47.55136" lon="-2.84183">
        <time>2018-05-13T15:14:42Z</time>
      </trkpt>
      <trkpt lat="47.55124" lon="-2.84188">
        <time>2018-05-13T15:14:54Z</time>
      </trkpt>
      <trkpt lat="47.5511" lon="-2.84197">
        <time>2018-05-13T15:15:09Z</time>
      </trkpt>
      <trkpt lat="47.55108" lon="-2.84197">
        <time>2018-05-13T15:15:11Z</time>
      </trkpt>
      <trkpt lat="47.55098" lon="-2.84201">
        <time>2018-05-13T15:15:24Z</time>
      </trkpt>
      <trkpt lat="47.55089" lon="-2.84206">
        <time>2018-05-13T15:15:32Z</time>
      </trkpt>
      <trkpt lat="47.55072" lon="-2.84218">
        <time>2018-05-13T15:15:47Z</time>
      </trkpt>
      <trkpt lat="47.55069" lon="-2.84221">
        <time>2018-05-13T15:15:51Z</time>
      </trkpt>
      <trkpt lat="47.55066" lon="-2.84224">
        <time>2018-05-13T15:15:54Z</time>
      </trkpt>
      <trkpt lat="47.55062" lon="-2.84228">
        <time>2018-05-13T15:15:58Z</time>
      </trkpt>
      <trkpt lat="47.55057" lon="-2.84233">
        <time>2018-05-13T15:16:02Z</time>
      </trkpt>
      <trkpt lat="47.55041" lon="-2.84247">
        <time>2018-05-13T15:16:20Z</time>
      </trkpt>
      <trkpt lat="47.55039" lon="-2.84247">
        <time>2018-05-13T15:16:22Z</time>
      </trkpt>
      <trkpt lat="47.55038" lon="-2.84248">
        <time>2018-05-13T15:16:24Z</time>
      </trkpt>
      <trkpt lat="47.55022" lon="-2.84258">
        <time>2018-05-13T15:16:40Z</time>
      </trkpt>
      <trkpt lat="47.55016" lon="-2.84263">
        <time>2018-05-13T15:16:46Z</time>
      </trkpt>
      <trkpt lat="47.54999" lon="-2.84272">
        <time>2018-05-13T15:17:00Z</time>
      </trkpt>
      <trkpt lat="47.54994" lon="-2.84274">
        <time>2018-05-13T15:17:05Z</time>
      </trkpt>
      <trkpt lat="47.54976" lon="-2.84285">
        <time>2018-05-13T15:17:22Z</time>
      </trkpt>
      <trkpt lat="47.54959" lon="-2.84292">
        <time>2018-05-13T15:17:46Z</time>
      </trkpt>
      <trkpt lat="47.54944" lon="-2.84298">
        <time>2018-05-13T15:18:04Z</time>
      </trkpt>
      <trkpt lat="47.54947" lon="-2.84295">
        <time>2018-05-13T15:18:13Z</time>
      </trkpt>
      <trkpt lat="47.54971" lon="-2.84286">
        <time>2018-05-13T15:18:30Z</time>
      </trkpt>
      <trkpt lat="47.54973" lon="-2.84286">
        <time>2018-05-13T15:18:31Z</time>
      </trkpt>
      <trkpt lat="47.54992" lon="-2.84282">
        <time>2018-05-13T15:18:42Z</time>
      </trkpt>
      <trkpt lat="47.55002" lon="-2.84278">
        <time>2018-05-13T15:18:47Z</time>
      </trkpt>
      <trkpt lat="47.55025" lon="-2.84273">
        <time>2018-05-13T15:18:58Z</time>
      </trkpt>
      <trkpt lat="47.55035" lon="-2.84266">
        <time>2018-05-13T15:19:04Z</time>
      </trkpt>
      <trkpt lat="47.55049" lon="-2.84255">
        <time>2018-05-13T15:19:12Z</time>
      </trkpt>
      <trkpt lat="47.55071" lon="-2.84233">
        <time>2018-05-13T15:19:27Z</time>
      </trkpt>
      <trkpt lat="47.55079" lon="-2.84228">
        <time>2018-05-13T15:19:32Z</time>
      </trkpt>
      <trkpt lat="47.55086" lon="-2.84223">
        <time>2018-05-13T15:19:36Z</time>
      </trkpt>
      <trkpt lat="47.55099" lon="-2.84215">
        <time>2018-05-13T15:19:44Z</time>
      </trkpt>
      <trkpt lat="47.55112" lon="-2.8421">
        <time>2018-05-13T15:19:51Z</time>
      </trkpt>
      <trkpt lat="47.55132" lon="-2.842">
        <time>2018-05-13T15:20:03Z</time>
      </trkpt>
      <trkpt lat="47.55155" lon="-2.84192">
        <time>2018-05-13T15:20:20Z</time>
      </trkpt>
      <trkpt lat="47.55161" lon="-2.84189">
        <time>2018-05-13T15:20:25Z</time>
      </trkpt>
      <trkpt lat="47.55178" lon="-2.8418">
        <time>2018-05-13T15:20:40Z</time>
      </trkpt>
      <trkpt lat="47.55182" lon="-2.84175">
        <time>2018-05-13T15:20:46Z</time>
      </trkpt>
      <trkpt lat="47.55198" lon="-2.84162">
        <time>2018-05-13T15:20:57Z</time>
      </trkpt>
      <trkpt lat="47.55208" lon="-2.84156">
        <time>2018-05-13T15:21:02Z</time>
      </trkpt>
      <trkpt lat="47.55219" lon="-2.84148">
        <time>2018-05-13T15:21:07Z</time>
      </trkpt>
      <trkpt lat="47.55233" lon="-2.84136">
        <time>2018-05-13T15:21:14Z</time>
      </trkpt>
      <trkpt lat="47.55241" lon="-2.84131">
        <time>2018-05-13T15:21:19Z</time>
      </trkpt>
      <trkpt lat="47.5525" lon="-2.84126">
        <time>2018-05-13T15:21:23Z</time>
      </trkpt>
      <trkpt lat="47.55269" lon="-2.84112">
        <time>2018-05-13T15:21:33Z</time>
      </trkpt>
      <trkpt lat="47.55273" lon="-2.84109">
        <time>2018-05-13T15:21:35Z</time>
      </trkpt>
      <trkpt lat="47.55292" lon="-2.8409">
        <time>2018-05-13T15:21:46Z</time>
      </trkpt>
      <trkpt lat="47.55324" lon="-2.84059">
        <time>2018-05-13T15:22:03Z</time>
      </trkpt>
      <trkpt lat="47.55357" lon="-2.84031">
        <time>2018-05-13T15:22:22Z</time>
      </trkpt>
      <trkpt lat="47.55362" lon="-2.84024">
        <time>2018-05-13T15:22:27Z</time>
      </trkpt>
      <trkpt lat="47.55391" lon="-2.84011">
        <time>2018-05-13T15:22:40Z</time>
      </trkpt>
      <trkpt lat="47.55426" lon="-2.83994">
        <time>2018-05-13T15:22:58Z</time>
      </trkpt>
      <trkpt lat="47.55436" lon="-2.8399">
        <time>2018-05-13T15:23:04Z</time>
      </trkpt>
      <trkpt lat="47.5544" lon="-2.83989">
        <time>2018-05-13T15:23:06Z</time>
      </trkpt>
      <trkpt lat="47.55473" lon="-2.83984">
        <time>2018-05-13T15:23:24Z</time>
      </trkpt>
      <trkpt lat="47.55508" lon="-2.83974">
        <time>2018-05-13T15:23:41Z</time>
      </trkpt>
      <trkpt lat="47.55512" lon="-2.83973">
        <time>2018-05-13T15:23:43Z</time>
      </trkpt>
      <trkpt lat="47.55518" lon="-2.8397">
        <time>2018-05-13T15:23:46Z</time>
      </trkpt>
      <trkpt lat="47.55529" lon="-2.83968">
        <time>2018-05-13T15:23:52Z</time>
      </trkpt>
      <trkpt lat="47.55545" lon="-2.83965">
        <time>2018-05-13T15:24:02Z</time>
      </trkpt>
      <trkpt lat="47.55561" lon="-2.83963">
        <time>2018-05-13T15:24:12Z</time>
      </trkpt>
      <trkpt lat="47.55571" lon="-2.83963">
        <time>2018-05-13T15:24:17Z</time>
      </trkpt>
      <trkpt lat="47.5558" lon="-2.83964">
        <time>2018-05-13T15:24:22Z</time>
      </trkpt>
      <trkpt lat="47.55584" lon="-2.83965">
        <time>2018-05-13T15:24:25Z</time>
      </trkpt>
      <trkpt lat="47.55598" lon="-2.83965">
        <time>2018-05-13T15:24:33Z</time>
      </trkpt>
      <trkpt lat="47.55601" lon="-2.83965">
        <time>2018-05-13T15:24:35Z</time>
      </trkpt>
      <trkpt lat="47.55632" lon="-2.83964">
        <time>2018-05-13T15:24:52Z</time>
      </trkpt>
      <trkpt lat="47.55646" lon="-2.83961">
        <time>2018-05-13T15:24:59Z</time>
      </trkpt>
      <trkpt lat="47.55655" lon="-2.83962">
        <time>2018-05-13T15:25:04Z</time>
      </trkpt>
      <trkpt lat="47.5569" lon="-2.83958">
        <time>2018-05-13T15:25:20Z</time>
      </trkpt>
      <trkpt lat="47.55718" lon="-2.83961">
        <time>2018-05-13T15:25:34Z</time>
      </trkpt>
      <trkpt lat="47.55724" lon="-2.8396">
        <time>2018-05-13T15:25:37Z</time>
      </trkpt>
      <trkpt lat="47.55732" lon="-2.8396">
        <time>2018-05-13T15:25:41Z</time>
      </trkpt>
      <trkpt lat="47.55742" lon="-2.83964">
        <time>2018-05-13T15:25:46Z</time>
      </trkpt>
      <trkpt lat="47.55775" lon="-2.83969">
        <time>2018-05-13T15:26:04Z</time>
      </trkpt>
      <trkpt lat="47.55806" lon="-2.83974">
        <time>2018-05-13T15:26:21Z</time>
      </trkpt>
      <trkpt lat="47.5582" lon="-2.83973">
        <time>2018-05-13T15:26:29Z</time>
      </trkpt>
      <trkpt lat="47.55844" lon="-2.83974">
        <time>2018-05-13T15:26:41Z</time>
      </trkpt>
      <trkpt lat="47.55886" lon="-2.83974">
        <time>2018-05-13T15:27:02Z</time>
      </trkpt>
      <trkpt lat="47.55916" lon="-2.83976">
        <time>2018-05-13T15:27:18Z</time>
      </trkpt>
      <trkpt lat="47.55949" lon="-2.83968">
        <time>2018-05-13T15:27:37Z</time>
      </trkpt>
      <trkpt lat="47.55981" lon="-2.83963">
        <time>2018-05-13T15:27:54Z</time>
      </trkpt>
      <trkpt lat="47.55994" lon="-2.83961">
        <time>2018-05-13T15:28:01Z</time>
      </trkpt>
      <trkpt lat="47.56001" lon="-2.83961">
        <time>2018-05-13T15:28:06Z</time>
      </trkpt>
      <trkpt lat="47.56004" lon="-2.83962">
        <time>2018-05-13T15:28:10Z</time>
      </trkpt>
      <trkpt lat="47.56017" lon="-2.83956">
        <time>2018-05-13T15:28:19Z</time>
      </trkpt>
      <trkpt lat="47.56035" lon="-2.83951">
        <time>2018-05-13T15:28:28Z</time>
      </trkpt>
      <trkpt lat="47.56042" lon="-2.83949">
        <time>2018-05-13T15:28:32Z</time>
      </trkpt>
      <trkpt lat="47.5607" lon="-2.83943">
        <time>2018-05-13T15:28:47Z</time>
      </trkpt>
      <trkpt lat="47.56094" lon="-2.83934">
        <time>2018-05-13T15:29:01Z</time>
      </trkpt>
      <trkpt lat="47.5612" lon="-2.83926">
        <time>2018-05-13T15:29:15Z</time>
      </trkpt>
      <trkpt lat="47.56138" lon="-2.83915">
        <time>2018-05-13T15:29:24Z</time>
      </trkpt>
      <trkpt lat="47.56178" lon="-2.83894">
        <time>2018-05-13T15:29:43Z</time>
      </trkpt>
      <trkpt lat="47.56214" lon="-2.83874">
        <time>2018-05-13T15:30:00Z</time>
      </trkpt>
      <trkpt lat="47.56231" lon="-2.83865">
        <time>2018-05-13T15:30:08Z</time>
      </trkpt>
      <trkpt lat="47.56261" lon="-2.83845">
        <time>2018-05-13T15:30:22Z</time>
      </trkpt>
      <trkpt lat="47.5627" lon="-2.83839">
        <time>2018-05-13T15:30:26Z</time>
      </trkpt>
      <trkpt lat="47.56304" lon="-2.83807">
        <time>2018-05-13T15:30:43Z</time>
      </trkpt>
      <trkpt lat="47.56327" lon="-2.83775">
        <time>2018-05-13T15:30:57Z</time>
      </trkpt>
      <trkpt lat="47.56348" lon="-2.83742">
        <time>2018-05-13T15:31:09Z</time>
      </trkpt>
      <trkpt lat="47.56368" lon="-2.83712">
        <time>2018-05-13T15:31:22Z</time>
      </trkpt>
      <trkpt lat="47.56374" lon="-2.8371">
        <time>2018-05-13T15:31:25Z</time>
      </trkpt>
      <trkpt lat="47.564" lon="-2.83694">
        <time>2018-05-13T15:31:38Z</time>
      </trkpt>
      <trkpt lat="47.56411" lon="-2.83685">
        <time>2018-05-13T15:31:45Z</time>
      </trkpt>
      <trkpt lat="47.56424" lon="-2.83677">
        <time>2018-05-13T15:31:51Z</time>
      </trkpt>
      <trkpt lat="47.56444" lon="-2.83667">
        <time>2018-05-13T15:31:59Z</time>
      </trkpt>
      <trkpt lat="47.56459" lon="-2.83658">
        <time>2018-05-13T15:32:05Z</time>
      </trkpt>
      <trkpt lat="47.56472" lon="-2.83647">
        <time>2018-05-13T15:32:11Z</time>
      </trkpt>
      <trkpt lat="47.56484" lon="-2.83634">
        <time>2018-05-13T15:32:18Z</time>
      </trkpt>
      <trkpt lat="47.56502" lon="-2.83614">
        <time>2018-05-13T15:32:27Z</time>
      </trkpt>
      <trkpt lat="47.56507" lon="-2.83609">
        <time>2018-05-13T15:32:30Z</time>
      </trkpt>
      <trkpt lat="47.56533" lon="-2.83577">
        <time>2018-05-13T15:32:43Z</time>
      </trkpt>
      <trkpt lat="47.56535" lon="-2.83575">
        <time>2018-05-13T15:32:44Z</time>
      </trkpt>
      <trkpt lat="47.56545" lon="-2.83561">
        <time>2018-05-13T15:32:50Z</time>
      </trkpt>
      <trkpt lat="47.5655" lon="-2.83554">
        <time>2018-05-13T15:32:53Z</time>
      </trkpt>
      <trkpt lat="47.56572" lon="-2.83524">
        <time>2018-05-13T15:33:07Z</time>
      </trkpt>
      <trkpt lat="47.56581" lon="-2.83512">
        <time>2018-05-13T15:33:13Z</time>
      </trkpt>
      <trkpt lat="47.56592" lon="-2.835">
        <time>2018-05-13T15:33:22Z</time>
      </trkpt>
      <trkpt lat="47.56606" lon="-2.83489">
        <time>2018-05-13T15:33:32Z</time>
      </trkpt>
      <trkpt lat="47.56615" lon="-2.83479">
        <time>2018-05-13T15:33:43Z</time>
      </trkpt>
      <trkpt lat="47.56622" lon="-2.8347">
        <time>2018-05-13T15:33:49Z</time>
      </trkpt>
      <trkpt lat="47.56627" lon="-2.83465">
        <time>2018-05-13T15:33:53Z</time>
      </trkpt>
      <trkpt lat="47.56645" lon="-2.83443">
        <time>2018-05-13T15:34:11Z</time>
      </trkpt>
      <trkpt lat="47.56657" lon="-2.83429">
        <time>2018-05-13T15:34:22Z</time>
      </trkpt>
      <trkpt lat="47.56663" lon="-2.83423">
        <time>2018-05-13T15:34:27Z</time>
      </trkpt>
      <trkpt lat="47.56675" lon="-2.83408">
        <time>2018-05-13T15:34:40Z</time>
      </trkpt>
      <trkpt lat="47.56681" lon="-2.83401">
        <time>2018-05-13T15:34:48Z</time>
      </trkpt>
      <trkpt lat="47.56695" lon="-2.8339">
        <time>2018-05-13T15:35:02Z</time>
      </trkpt>
      <trkpt lat="47.56697" lon="-2.83388">
        <time>2018-05-13T15:35:04Z</time>
      </trkpt>
      <trkpt lat="47.56705" lon="-2.83378">
        <time>2018-05-13T15:35:11Z</time>
      </trkpt>
      <trkpt lat="47.56715" lon="-2.83367">
        <time>2018-05-13T15:35:19Z</time>
      </trkpt>
      <trkpt lat="47.56724" lon="-2.83359">
        <time>2018-05-13T15:35:25Z</time>
      </trkpt>
      <trkpt lat="47.56731" lon="-2.83355">
        <time>2018-05-13T15:35:30Z</time>
      </trkpt>
      <trkpt lat="47.56739" lon="-2.83352">
        <time>2018-05-13T15:35:37Z</time>
      </trkpt>
      <trkpt lat="47.56746" lon="-2.83349">
        <time>2018-05-13T15:35:42Z</time>
      </trkpt>
      <trkpt lat="47.56755" lon="-2.83344">
        <time>2018-05-13T15:35:50Z</time>
      </trkpt>
      <trkpt lat="47.56771" lon="-2.83333">
        <time>2018-05-13T15:36:02Z</time>
      </trkpt>
      <trkpt lat="47.56785" lon="-2.83323">
        <time>2018-05-13T15:36:14Z</time>
      </trkpt>
      <trkpt lat="47.5679" lon="-2.83322">
        <time>2018-05-13T15:36:18Z</time>
      </trkpt>
      <trkpt lat="47.56793" lon="-2.8332">
        <time>2018-05-13T15:36:21Z</time>
      </trkpt>
      <trkpt lat="47.56801" lon="-2.83317">
        <time>2018-05-13T15:36:26Z</time>
      </trkpt>
      <trkpt lat="47.56806" lon="-2.83316">
        <time>2018-05-13T15:36:29Z</time>
      </trkpt>
      <trkpt lat="47.56813" lon="-2.83313">
        <time>2018-05-13T15:36:33Z</time>
      </trkpt>
      <trkpt lat="47.56817" lon="-2.83314">
        <time>2018-05-13T15:36:35Z</time>
      </trkpt>
      <trkpt lat="47.56827" lon="-2.83314">
        <time>2018-05-13T15:36:43Z</time>
      </trkpt>
      <trkpt lat="47.56844" lon="-2.83305">
        <time>2018-05-13T15:36:57Z</time>
      </trkpt>
      <trkpt lat="47.5685" lon="-2.83301">
        <time>2018-05-13T15:37:02Z</time>
      </trkpt>
      <trkpt lat="47.5686" lon="-2.83292">
        <time>2018-05-13T15:37:10Z</time>
      </trkpt>
      <trkpt lat="47.56868" lon="-2.83287">
        <time>2018-05-13T15:37:19Z</time>
      </trkpt>
      <trkpt lat="47.56869" lon="-2.83284">
        <time>2018-05-13T15:37:21Z</time>
      </trkpt>
      <trkpt lat="47.56876" lon="-2.83267">
        <time>2018-05-13T15:37:36Z</time>
      </trkpt>
      <trkpt lat="47.56882" lon="-2.83266">
        <time>2018-05-13T15:37:48Z</time>
      </trkpt>
      <trkpt lat="47.56884" lon="-2.83263">
        <time>2018-05-13T15:37:50Z</time>
      </trkpt>
      <trkpt lat="47.56889" lon="-2.83259">
        <time>2018-05-13T15:37:54Z</time>
      </trkpt>
      <trkpt lat="47.56905" lon="-2.8324">
        <time>2018-05-13T15:38:08Z</time>
      </trkpt>
      <trkpt lat="47.56911" lon="-2.83232">
        <time>2018-05-13T15:38:13Z</time>
      </trkpt>
      <trkpt lat="47.56914" lon="-2.83225">
        <time>2018-05-13T15:38:27Z</time>
      </trkpt>
      <trkpt lat="47.56918" lon="-2.83223">
        <time>2018-05-13T15:38:33Z</time>
      </trkpt>
      <trkpt lat="47.56928" lon="-2.83217">
        <time>2018-05-13T15:38:41Z</time>
      </trkpt>
      <trkpt lat="47.56945" lon="-2.83202">
        <time>2018-05-13T15:38:54Z</time>
      </trkpt>
      <trkpt lat="47.56959" lon="-2.83186">
        <time>2018-05-13T15:39:09Z</time>
      </trkpt>
      <trkpt lat="47.56971" lon="-2.83176">
        <time>2018-05-13T15:39:33Z</time>
      </trkpt>
      <trkpt lat="47.56973" lon="-2.83174">
        <time>2018-05-13T15:39:36Z</time>
      </trkpt>
      <trkpt lat="47.56982" lon="-2.83161">
        <time>2018-05-13T15:39:44Z</time>
      </trkpt>
      <trkpt lat="47.5699" lon="-2.83154">
        <time>2018-05-13T15:40:02Z</time>
      </trkpt>
      <trkpt lat="47.56994" lon="-2.83149">
        <time>2018-05-13T15:40:09Z</time>
      </trkpt>
      <trkpt lat="47.5701" lon="-2.83137">
        <time>2018-05-13T15:40:33Z</time>
      </trkpt>
      <trkpt lat="47.57025" lon="-2.83115">
        <time>2018-05-13T15:40:52Z</time>
      </trkpt>
      <trkpt lat="47.57034" lon="-2.83106">
        <time>2018-05-13T15:41:03Z</time>
      </trkpt>
      <trkpt lat="47.57037" lon="-2.83102">
        <time>2018-05-13T15:41:07Z</time>
      </trkpt>
      <trkpt lat="47.5705" lon="-2.83093">
        <time>2018-05-13T15:41:27Z</time>
      </trkpt>
      <trkpt lat="47.57054" lon="-2.83087">
        <time>2018-05-13T15:41:49Z</time>
      </trkpt>
      <trkpt lat="47.57066" lon="-2.83064">
        <time>2018-05-13T15:42:13Z</time>
      </trkpt>
      <trkpt lat="47.57066" lon="-2.83062">
        <time>2018-05-13T15:42:14Z</time>
      </trkpt>
      <trkpt lat="47.57084" lon="-2.83037">
        <time>2018-05-13T15:42:40Z</time>
      </trkpt>
      <trkpt lat="47.57097" lon="-2.83022">
        <time>2018-05-13T15:42:59Z</time>
      </trkpt>
      <trkpt lat="47.57106" lon="-2.83013">
        <time>2018-05-13T15:43:09Z</time>
      </trkpt>
      <trkpt lat="47.57109" lon="-2.83009">
        <time>2018-05-13T15:43:13Z</time>
      </trkpt>
      <trkpt lat="47.57111" lon="-2.83007">
        <time>2018-05-13T15:43:15Z</time>
      </trkpt>
      <trkpt lat="47.57118" lon="-2.83001">
        <time>2018-05-13T15:43:22Z</time>
      </trkpt>
      <trkpt lat="47.57138" lon="-2.82984">
        <time>2018-05-13T15:43:43Z</time>
      </trkpt>
      <trkpt lat="47.5715" lon="-2.82971">
        <time>2018-05-13T15:43:58Z</time>
      </trkpt>
      <trkpt lat="47.57157" lon="-2.82964">
        <time>2018-05-13T15:44:06Z</time>
      </trkpt>
      <trkpt lat="47.5716" lon="-2.82958">
        <time>2018-05-13T15:44:10Z</time>
      </trkpt>
      <trkpt lat="47.57164" lon="-2.82952">
        <time>2018-05-13T15:44:17Z</time>
      </trkpt>
      <trkpt lat="47.57166" lon="-2.82945">
        <time>2018-05-13T15:44:22Z</time>
      </trkpt>
      <trkpt lat="47.5718" lon="-2.82923">
        <time>2018-05-13T15:44:45Z</time>
      </trkpt>
      <trkpt lat="47.57197" lon="-2.82902">
        <time>2018-05-13T15:45:12Z</time>
      </trkpt>
      <trkpt lat="47.57214" lon="-2.82885">
        <time>2018-05-13T15:45:37Z</time>
      </trkpt>
      <trkpt lat="47.5723" lon="-2.82871">
        <time>2018-05-13T15:46:02Z</time>
      </trkpt>
      <trkpt lat="47.5724" lon="-2.82856">
        <time>2018-05-13T15:46:20Z</time>
      </trkpt>
      <trkpt lat="47.57249" lon="-2.82848">
        <time>2018-05-13T15:46:34Z</time>
      </trkpt>
      <trkpt lat="47.57267" lon="-2.82832">
        <time>2018-05-13T15:47:01Z</time>
      </trkpt>
      <trkpt lat="47.57275" lon="-2.82826">
        <time>2018-05-13T15:47:10Z</time>
      </trkpt>
      <trkpt lat="47.57277" lon="-2.82825">
        <time>2018-05-13T15:47:12Z</time>
      </trkpt>
      <trkpt lat="47.5728" lon="-2.82823">
        <time>2018-05-13T15:47:15Z</time>
      </trkpt>
      <trkpt lat="47.57294" lon="-2.82809">
        <time>2018-05-13T15:47:31Z</time>
      </trkpt>
      <trkpt lat="47.57296" lon="-2.82807">
        <time>2018-05-13T15:47:33Z</time>
      </trkpt>
      <trkpt lat="47.57299" lon="-2.82806">
        <time>2018-05-13T15:47:36Z</time>
      </trkpt>
      <trkpt lat="47.57312" lon="-2.82794">
        <time>2018-05-13T15:47:47Z</time>
      </trkpt>
      <trkpt lat="47.57317" lon="-2.82788">
        <time>2018-05-13T15:47:51Z</time>
      </trkpt>
      <trkpt lat="47.5734" lon="-2.82766">
        <time>2018-05-13T15:48:11Z</time>
      </trkpt>
      <trkpt lat="47.57348" lon="-2.82762">
        <time>2018-05-13T15:48:16Z</time>
      </trkpt>
      <trkpt lat="47.57365" lon="-2.82747">
        <time>2018-05-13T15:48:30Z</time>
      </trkpt>
      <trkpt lat="47.57367" lon="-2.82722">
        <time>2018-05-13T15:48:44Z</time>
      </trkpt>
      <trkpt lat="47.57361" lon="-2.82719">
        <time>2018-05-13T15:49:02Z</time>
      </trkpt>
      <trkpt lat="47.5737" lon="-2.82713">
        <time>2018-05-13T15:49:20Z</time>
      </trkpt>
      <trkpt lat="47.57386" lon="-2.82707">
        <time>2018-05-13T15:49:32Z</time>
      </trkpt>
      <trkpt lat="47.57407" lon="-2.82695">
        <time>2018-05-13T15:49:50Z</time>
      </trkpt>
      <trkpt lat="47.57413" lon="-2.82691">
        <time>2018-05-13T15:49:55Z</time>
      </trkpt>
      <trkpt lat="47.57434" lon="-2.82677">
        <time>2018-05-13T15:50:12Z</time>
      </trkpt>
      <trkpt lat="47.57438" lon="-2.82674">
        <time>2018-05-13T15:50:16Z</time>
      </trkpt>
      <trkpt lat="47.57443" lon="-2.82669">
        <time>2018-05-13T15:50:20Z</time>
      </trkpt>
      <trkpt lat="47.5746" lon="-2.82656">
        <time>2018-05-13T15:50:33Z</time>
      </trkpt>
      <trkpt lat="47.57466" lon="-2.8265">
        <time>2018-05-13T15:50:39Z</time>
      </trkpt>
      <trkpt lat="47.57481" lon="-2.82639">
        <time>2018-05-13T15:50:52Z</time>
      </trkpt>
      <trkpt lat="47.57483" lon="-2.82637">
        <time>2018-05-13T15:50:54Z</time>
      </trkpt>
      <trkpt lat="47.57488" lon="-2.82632">
        <time>2018-05-13T15:51:00Z</time>
      </trkpt>
      <trkpt lat="47.57496" lon="-2.82628">
        <time>2018-05-13T15:51:06Z</time>
      </trkpt>
      <trkpt lat="47.57502" lon="-2.82625">
        <time>2018-05-13T15:51:10Z</time>
      </trkpt>
      <trkpt lat="47.57505" lon="-2.82623">
        <time>2018-05-13T15:51:12Z</time>
      </trkpt>
      <trkpt lat="47.57511" lon="-2.8262">
        <time>2018-05-13T15:51:16Z</time>
      </trkpt>
      <trkpt lat="47.57536" lon="-2.82605">
        <time>2018-05-13T15:51:35Z</time>
      </trkpt>
      <trkpt lat="47.57544" lon="-2.82601">
        <time>2018-05-13T15:51:41Z</time>
      </trkpt>
      <trkpt lat="47.57548" lon="-2.826">
        <time>2018-05-13T15:51:44Z</time>
      </trkpt>
      <trkpt lat="47.5755" lon="-2.82598">
        <time>2018-05-13T15:51:47Z</time>
      </trkpt>
      <trkpt lat="47.57555" lon="-2.82596">
        <time>2018-05-13T15:51:52Z</time>
      </trkpt>
      <trkpt lat="47.57566" lon="-2.8259">
        <time>2018-05-13T15:51:59Z</time>
      </trkpt>
      <trkpt lat="47.57593" lon="-2.82579">
        <time>2018-05-13T15:52:16Z</time>
      </trkpt>
      <trkpt lat="47.57627" lon="-2.82563">
        <time>2018-05-13T15:52:34Z</time>
      </trkpt>
      <trkpt lat="47.57631" lon="-2.82561">
        <time>2018-05-13T15:52:36Z</time>
      </trkpt>
      <trkpt lat="47.5766" lon="-2.82545">
        <time>2018-05-13T15:52:54Z</time>
      </trkpt>
      <trkpt lat="47.57688" lon="-2.82524">
        <time>2018-05-13T15:53:12Z</time>
      </trkpt>
      <trkpt lat="47.57741" lon="-2.82498">
        <time>2018-05-13T15:53:41Z</time>
      </trkpt>
      <trkpt lat="47.57743" lon="-2.82498">
        <time>2018-05-13T15:53:42Z</time>
      </trkpt>
      <trkpt lat="47.57751" lon="-2.82493">
        <time>2018-05-13T15:53:47Z</time>
      </trkpt>
      <trkpt lat="47.57786" lon="-2.82481">
        <time>2018-05-13T15:54:07Z</time>
      </trkpt>
      <trkpt lat="47.57788" lon="-2.8248">
        <time>2018-05-13T15:54:08Z</time>
      </trkpt>
      <trkpt lat="47.57801" lon="-2.82474">
        <time>2018-05-13T15:54:17Z</time>
      </trkpt>
      <trkpt lat="47.57825" lon="-2.82466">
        <time>2018-05-13T15:54:34Z</time>
      </trkpt>
      <trkpt lat="47.57835" lon="-2.82462">
        <time>2018-05-13T15:54:41Z</time>
      </trkpt>
      <trkpt lat="47.5786" lon="-2.82455">
        <time>2018-05-13T15:54:57Z</time>
      </trkpt>
      <trkpt lat="47.5789" lon="-2.82443">
        <time>2018-05-13T15:55:14Z</time>
      </trkpt>
      <trkpt lat="47.57906" lon="-2.82437">
        <time>2018-05-13T15:55:23Z</time>
      </trkpt>
      <trkpt lat="47.5793" lon="-2.82431">
        <time>2018-05-13T15:55:38Z</time>
      </trkpt>
      <trkpt lat="47.57953" lon="-2.82421">
        <time>2018-05-13T15:55:54Z</time>
      </trkpt>
      <trkpt lat="47.57978" lon="-2.82404">
        <time>2018-05-13T15:56:12Z</time>
      </trkpt>
      <trkpt lat="47.57995" lon="-2.82393">
        <time>2018-05-13T15:56:26Z</time>
      </trkpt>
      <trkpt lat="47.58003" lon="-2.82391">
        <time>2018-05-13T15:56:31Z</time>
      </trkpt>
      <trkpt lat="47.58015" lon="-2.82385">
        <time>2018-05-13T15:56:39Z</time>
      </trkpt>
      <trkpt lat="47.58019" lon="-2.82384">
        <time>2018-05-13T15:56:42Z</time>
      </trkpt>
      <trkpt lat="47.58029" lon="-2.82379">
        <time>2018-05-13T15:56:50Z</time>
      </trkpt>
      <trkpt lat="47.58041" lon="-2.82368">
        <time>2018-05-13T15:57:00Z</time>
      </trkpt>
      <trkpt lat="47.58041" lon="-2.82357">
        <time>2018-05-13T15:57:11Z</time>
      </trkpt>
      <trkpt lat="47.5804" lon="-2.82352">
        <time>2018-05-13T15:57:31Z</time>
      </trkpt>
      <trkpt lat="47.58036" lon="-2.82339">
        <time>2018-05-13T15:57:51Z</time>
      </trkpt>
      <trkpt lat="47.58039" lon="-2.82334">
        <time>2018-05-13T15:57:56Z</time>
      </trkpt>
      <trkpt lat="47.58054" lon="-2.82326">
        <time>2018-05-13T15:58:06Z</time>
      </trkpt>
      <trkpt lat="47.58065" lon="-2.82322">
        <time>2018-05-13T15:58:14Z</time>
      </trkpt>
      <trkpt lat="47.58074" lon="-2.82322">
        <time>2018-05-13T15:58:20Z</time>
      </trkpt>
      <trkpt lat="47.58094" lon="-2.82323">
        <time>2018-05-13T15:58:35Z</time>
      </trkpt>
      <trkpt lat="47.58096" lon="-2.82323">
        <time>2018-05-13T15:58:36Z</time>
      </trkpt>
      <trkpt lat="47.58102" lon="-2.82321">
        <time>2018-05-13T15:58:41Z</time>
      </trkpt>
      <trkpt lat="47.58113" lon="-2.82313">
        <time>2018-05-13T15:58:52Z</time>
      </trkpt>
      <trkpt lat="47.58117" lon="-2.82305">
        <time>2018-05-13T15:59:00Z</time>
      </trkpt>
      <trkpt lat="47.58128" lon="-2.8231">
        <time>2018-05-13T15:59:14Z</time>
      </trkpt>
      <trkpt lat="47.58153" lon="-2.82317">
        <time>2018-05-13T15:59:36Z</time>
      </trkpt>
      <trkpt lat="47.58167" lon="-2.8231">
        <time>2018-05-13T15:59:54Z</time>
      </trkpt>
      <trkpt lat="47.58172" lon="-2.82304">
        <time>2018-05-13T16:00:00Z</time>
      </trkpt>
      <trkpt lat="47.58176" lon="-2.82298">
        <time>2018-05-13T16:00:06Z</time>
      </trkpt>
      <trkpt lat="47.58193" lon="-2.8228">
        <time>2018-05-13T16:00:28Z</time>
      </trkpt>
      <trkpt lat="47.5821" lon="-2.82273">
        <time>2018-05-13T16:00:44Z</time>
      </trkpt>
      <trkpt lat="47.58235" lon="-2.82264">
        <time>2018-05-13T16:01:05Z</time>
      </trkpt>
      <trkpt lat="47.58244" lon="-2.82259">
        <time>2018-05-13T16:01:14Z</time>
      </trkpt>
      <trkpt lat="47.58247" lon="-2.82258">
        <time>2018-05-13T16:01:17Z</time>
      </trkpt>
      <trkpt lat="47.5825" lon="-2.82257">
        <time>2018-05-13T16:01:20Z</time>
      </trkpt>
      <trkpt lat="47.58269" lon="-2.82251">
        <time>2018-05-13T16:01:35Z</time>
      </trkpt>
      <trkpt lat="47.58275" lon="-2.82248">
        <time>2018-05-13T16:01:40Z</time>
      </trkpt>
      <trkpt lat="47.58283" lon="-2.82248">
        <time>2018-05-13T16:01:47Z</time>
      </trkpt>
      <trkpt lat="47.58297" lon="-2.82246">
        <time>2018-05-13T16:01:57Z</time>
      </trkpt>
      <trkpt lat="47.58321" lon="-2.8224">
        <time>2018-05-13T16:02:12Z</time>
      </trkpt>
      <trkpt lat="47.58324" lon="-2.8224">
        <time>2018-05-13T16:02:14Z</time>
      </trkpt>
      <trkpt lat="47.58345" lon="-2.82235">
        <time>2018-05-13T16:02:30Z</time>
      </trkpt>
      <trkpt lat="47.58358" lon="-2.82234">
        <time>2018-05-13T16:02:36Z</time>
      </trkpt>
      <trkpt lat="47.58379" lon="-2.82237">
        <time>2018-05-13T16:02:52Z</time>
      </trkpt>
      <trkpt lat="47.58389" lon="-2.82236">
        <time>2018-05-13T16:02:59Z</time>
      </trkpt>
      <trkpt lat="47.5841" lon="-2.82229">
        <time>2018-05-13T16:03:14Z</time>
      </trkpt>
      <trkpt lat="47.58415" lon="-2.82227">
        <time>2018-05-13T16:03:17Z</time>
      </trkpt>
      <trkpt lat="47.58423" lon="-2.82222">
        <time>2018-05-13T16:03:25Z</time>
      </trkpt>
      <trkpt lat="47.58451" lon="-2.8221">
        <time>2018-05-13T16:03:44Z</time>
      </trkpt>
      <trkpt lat="47.58458" lon="-2.82205">
        <time>2018-05-13T16:03:50Z</time>
      </trkpt>
      <trkpt lat="47.58477" lon="-2.82193">
        <time>2018-05-13T16:04:08Z</time>
      </trkpt>
      <trkpt lat="47.58492" lon="-2.82187">
        <time>2018-05-13T16:04:18Z</time>
      </trkpt>
      <trkpt lat="47.58508" lon="-2.82184">
        <time>2018-05-13T16:04:27Z</time>
      </trkpt>
      <trkpt lat="47.58539" lon="-2.8218">
        <time>2018-05-13T16:04:45Z</time>
      </trkpt>
      <trkpt lat="47.58558" lon="-2.82175">
        <time>2018-05-13T16:04:56Z</time>
      </trkpt>
      <trkpt lat="47.58576" lon="-2.82169">
        <time>2018-05-13T16:05:08Z</time>
      </trkpt>
      <trkpt lat="47.5859" lon="-2.82172">
        <time>2018-05-13T16:05:17Z</time>
      </trkpt>
      <trkpt lat="47.58596" lon="-2.82172">
        <time>2018-05-13T16:05:21Z</time>
      </trkpt>
      <trkpt lat="47.58606" lon="-2.82168">
        <time>2018-05-13T16:05:28Z</time>
      </trkpt>
      <trkpt lat="47.58622" lon="-2.82161">
        <time>2018-05-13T16:05:37Z</time>
      </trkpt>
      <trkpt lat="47.58634" lon="-2.82156">
        <time>2018-05-13T16:05:45Z</time>
      </trkpt>
      <trkpt lat="47.58668" lon="-2.82152">
        <time>2018-05-13T16:06:04Z</time>
      </trkpt>
      <trkpt lat="47.58686" lon="-2.82149">
        <time>2018-05-13T16:06:14Z</time>
      </trkpt>
      <trkpt lat="47.58715" lon="-2.82149">
        <time>2018-05-13T16:06:31Z</time>
      </trkpt>
      <trkpt lat="47.58718" lon="-2.82149">
        <time>2018-05-13T16:06:33Z</time>
      </trkpt>
      <trkpt lat="47.58724" lon="-2.8215">
        <time>2018-05-13T16:06:37Z</time>
      </trkpt>
      <trkpt lat="47.58735" lon="-2.82153">
        <time>2018-05-13T16:06:43Z</time>
      </trkpt>
      <trkpt lat="47.58763" lon="-2.82156">
        <time>2018-05-13T16:07:00Z</time>
      </trkpt>
      <trkpt lat="47.58764" lon="-2.82156">
        <time>2018-05-13T16:07:01Z</time>
      </trkpt>
      <trkpt lat="47.58797" lon="-2.82149">
        <time>2018-05-13T16:07:19Z</time>
      </trkpt>
      <trkpt lat="47.58804" lon="-2.8215">
        <time>2018-05-13T16:07:23Z</time>
      </trkpt>
      <trkpt lat="47.58835" lon="-2.82154">
        <time>2018-05-13T16:07:39Z</time>
      </trkpt>
      <trkpt lat="47.58839" lon="-2.82154">
        <time>2018-05-13T16:07:41Z</time>
      </trkpt>
      <trkpt lat="47.58849" lon="-2.82155">
        <time>2018-05-13T16:07:47Z</time>
      </trkpt>
      <trkpt lat="47.58859" lon="-2.82156">
        <time>2018-05-13T16:07:54Z</time>
      </trkpt>
      <trkpt lat="47.58888" lon="-2.82157">
        <time>2018-05-13T16:08:11Z</time>
      </trkpt>
      <trkpt lat="47.58926" lon="-2.82157">
        <time>2018-05-13T16:08:32Z</time>
      </trkpt>
      <trkpt lat="47.58949" lon="-2.82158">
        <time>2018-05-13T16:08:47Z</time>
      </trkpt>
      <trkpt lat="47.5896" lon="-2.82158">
        <time>2018-05-13T16:08:54Z</time>
      </trkpt>
      <trkpt lat="47.58969" lon="-2.82156">
        <time>2018-05-13T16:09:00Z</time>
      </trkpt>
      <trkpt lat="47.58976" lon="-2.82157">
        <time>2018-05-13T16:09:05Z</time>
      </trkpt>
      <trkpt lat="47.58981" lon="-2.82157">
        <time>2018-05-13T16:09:08Z</time>
      </trkpt>
      <trkpt lat="47.58986" lon="-2.8216">
        <time>2018-05-13T16:09:12Z</time>
      </trkpt>
      <trkpt lat="47.58994" lon="-2.82167">
        <time>2018-05-13T16:09:20Z</time>
      </trkpt>
      <trkpt lat="47.59001" lon="-2.8217">
        <time>2018-05-13T16:09:26Z</time>
      </trkpt>
      <trkpt lat="47.59005" lon="-2.82171">
        <time>2018-05-13T16:09:29Z</time>
      </trkpt>
      <trkpt lat="47.59015" lon="-2.82172">
        <time>2018-05-13T16:09:36Z</time>
      </trkpt>
      <trkpt lat="47.59027" lon="-2.82177">
        <time>2018-05-13T16:09:45Z</time>
      </trkpt>
      <trkpt lat="47.59028" lon="-2.82178">
        <time>2018-05-13T16:09:47Z</time>
      </trkpt>
      <trkpt lat="47.5903" lon="-2.82178">
        <time>2018-05-13T16:09:49Z</time>
      </trkpt>
      <trkpt lat="47.59047" lon="-2.82176">
        <time>2018-05-13T16:10:05Z</time>
      </trkpt>
      <trkpt lat="47.59054" lon="-2.82176">
        <time>2018-05-13T16:10:09Z</time>
      </trkpt>
      <trkpt lat="47.59057" lon="-2.82176">
        <time>2018-05-13T16:10:12Z</time>
      </trkpt>
      <trkpt lat="47.59065" lon="-2.82178">
        <time>2018-05-13T16:10:17Z</time>
      </trkpt>
      <trkpt lat="47.59073" lon="-2.82179">
        <time>2018-05-13T16:10:22Z</time>
      </trkpt>
      <trkpt lat="47.59077" lon="-2.8218">
        <time>2018-05-13T16:10:26Z</time>
      </trkpt>
      <trkpt lat="47.59085" lon="-2.8218">
        <time>2018-05-13T16:10:33Z</time>
      </trkpt>
      <trkpt lat="47.59091" lon="-2.8218">
        <time>2018-05-13T16:10:36Z</time>
      </trkpt>
      <trkpt lat="47.59096" lon="-2.82181">
        <time>2018-05-13T16:10:39Z</time>
      </trkpt>
      <trkpt lat="47.59101" lon="-2.8218">
        <time>2018-05-13T16:10:43Z</time>
      </trkpt>
      <trkpt lat="47.59129" lon="-2.82177">
        <time>2018-05-13T16:11:03Z</time>
      </trkpt>
      <trkpt lat="47.5916" lon="-2.82168">
        <time>2018-05-13T16:11:26Z</time>
      </trkpt>
      <trkpt lat="47.59161" lon="-2.82167">
        <time>2018-05-13T16:11:27Z</time>
      </trkpt>
      <trkpt lat="47.59165" lon="-2.82165">
        <time>2018-05-13T16:11:31Z</time>
      </trkpt>
      <trkpt lat="47.59176" lon="-2.82163">
        <time>2018-05-13T16:11:40Z</time>
      </trkpt>
      <trkpt lat="47.59192" lon="-2.82167">
        <time>2018-05-13T16:11:54Z</time>
      </trkpt>
      <trkpt lat="47.59217" lon="-2.82179">
        <time>2018-05-13T16:12:12Z</time>
      </trkpt>
      <trkpt lat="47.59233" lon="-2.82193">
        <time>2018-05-13T16:12:26Z</time>
      </trkpt>
      <trkpt lat="47.5925" lon="-2.82219">
        <time>2018-05-13T16:12:42Z</time>
      </trkpt>
      <trkpt lat="47.59257" lon="-2.82235">
        <time>2018-05-13T16:12:52Z</time>
      </trkpt>
      <trkpt lat="47.59267" lon="-2.82248">
        <time>2018-05-13T16:13:01Z</time>
      </trkpt>
      <trkpt lat="47.59286" lon="-2.82264">
        <time>2018-05-13T16:13:13Z</time>
      </trkpt>
      <trkpt lat="47.59295" lon="-2.8227">
        <time>2018-05-13T16:13:18Z</time>
      </trkpt>
      <trkpt lat="47.59307" lon="-2.8228">
        <time>2018-05-13T16:13:28Z</time>
      </trkpt>
      <trkpt lat="47.5931" lon="-2.82285">
        <time>2018-05-13T16:13:32Z</time>
      </trkpt>
      <trkpt lat="47.59315" lon="-2.82301">
        <time>2018-05-13T16:13:42Z</time>
      </trkpt>
      <trkpt lat="47.59337" lon="-2.82322">
        <time>2018-05-13T16:13:56Z</time>
      </trkpt>
      <trkpt lat="47.59361" lon="-2.82333">
        <time>2018-05-13T16:14:12Z</time>
      </trkpt>
      <trkpt lat="47.59382" lon="-2.82352">
        <time>2018-05-13T16:14:27Z</time>
      </trkpt>
      <trkpt lat="47.59388" lon="-2.82358">
        <time>2018-05-13T16:14:32Z</time>
      </trkpt>
      <trkpt lat="47.59398" lon="-2.82375">
        <time>2018-05-13T16:14:51Z</time>
      </trkpt>
      <trkpt lat="47.59415" lon="-2.82393">
        <time>2018-05-13T16:15:14Z</time>
      </trkpt>
      <trkpt lat="47.59421" lon="-2.82402">
        <time>2018-05-13T16:15:22Z</time>
      </trkpt>
      <trkpt lat="47.59452" lon="-2.82416">
        <time>2018-05-13T16:15:37Z</time>
      </trkpt>
      <trkpt lat="47.59476" lon="-2.82423">
        <time>2018-05-13T16:15:51Z</time>
      </trkpt>
      <trkpt lat="47.59485" lon="-2.82427">
        <time>2018-05-13T16:15:57Z</time>
      </trkpt>
      <trkpt lat="47.59513" lon="-2.82444">
        <time>2018-05-13T16:16:14Z</time>
      </trkpt>
      <trkpt lat="47.59519" lon="-2.8245">
        <time>2018-05-13T16:16:18Z</time>
      </trkpt>
      <trkpt lat="47.59525" lon="-2.82456">
        <time>2018-05-13T16:16:22Z</time>
      </trkpt>
      <trkpt lat="47.59558" lon="-2.82476">
        <time>2018-05-13T16:16:42Z</time>
      </trkpt>
      <trkpt lat="47.59562" lon="-2.82479">
        <time>2018-05-13T16:16:44Z</time>
      </trkpt>
      <trkpt lat="47.59583" lon="-2.82488">
        <time>2018-05-13T16:16:56Z</time>
      </trkpt>
      <trkpt lat="47.59595" lon="-2.82496">
        <time>2018-05-13T16:17:06Z</time>
      </trkpt>
      <trkpt lat="47.59614" lon="-2.82504">
        <time>2018-05-13T16:17:17Z</time>
      </trkpt>
      <trkpt lat="47.59631" lon="-2.82517">
        <time>2018-05-13T16:17:28Z</time>
      </trkpt>
      <trkpt lat="47.59643" lon="-2.82524">
        <time>2018-05-13T16:17:34Z</time>
      </trkpt>
      <trkpt lat="47.59651" lon="-2.82531">
        <time>2018-05-13T16:17:38Z</time>
      </trkpt>
      <trkpt lat="47.59663" lon="-2.82535">
        <time>2018-05-13T16:17:44Z</time>
      </trkpt>
      <trkpt lat="47.59674" lon="-2.82541">
        <time>2018-05-13T16:17:49Z</time>
      </trkpt>
      <trkpt lat="47.59681" lon="-2.82543">
        <time>2018-05-13T16:17:53Z</time>
      </trkpt>
      <trkpt lat="47.59686" lon="-2.82552">
        <time>2018-05-13T16:17:58Z</time>
      </trkpt>
      <trkpt lat="47.59694" lon="-2.82559">
        <time>2018-05-13T16:18:03Z</time>
      </trkpt>
      <trkpt lat="47.59715" lon="-2.82572">
        <time>2018-05-13T16:18:14Z</time>
      </trkpt>
      <trkpt lat="47.59747" lon="-2.82585">
        <time>2018-05-13T16:18:29Z</time>
      </trkpt>
      <trkpt lat="47.59768" lon="-2.82593">
        <time>2018-05-13T16:18:39Z</time>
      </trkpt>
      <trkpt lat="47.5979" lon="-2.82595">
        <time>2018-05-13T16:18:49Z</time>
      </trkpt>
      <trkpt lat="47.59822" lon="-2.8261">
        <time>2018-05-13T16:19:05Z</time>
      </trkpt>
      <trkpt lat="47.59851" lon="-2.82628">
        <time>2018-05-13T16:19:20Z</time>
      </trkpt>
      <trkpt lat="47.59882" lon="-2.82649">
        <time>2018-05-13T16:19:37Z</time>
      </trkpt>
      <trkpt lat="47.59904" lon="-2.82674">
        <time>2018-05-13T16:19:54Z</time>
      </trkpt>
      <trkpt lat="47.59932" lon="-2.82686">
        <time>2018-05-13T16:20:08Z</time>
      </trkpt>
      <trkpt lat="47.59943" lon="-2.8269">
        <time>2018-05-13T16:20:14Z</time>
      </trkpt>
      <trkpt lat="47.59948" lon="-2.82693">
        <time>2018-05-13T16:20:18Z</time>
      </trkpt>
      <trkpt lat="47.59958" lon="-2.82695">
        <time>2018-05-13T16:20:24Z</time>
      </trkpt>
      <trkpt lat="47.59984" lon="-2.82704">
        <time>2018-05-13T16:20:39Z</time>
      </trkpt>
      <trkpt lat="47.59991" lon="-2.82704">
        <time>2018-05-13T16:20:43Z</time>
      </trkpt>
      <trkpt lat="47.60004" lon="-2.8271">
        <time>2018-05-13T16:20:52Z</time>
      </trkpt>
      <trkpt lat="47.60044" lon="-2.82712">
        <time>2018-05-13T16:21:11Z</time>
      </trkpt>
      <trkpt lat="47.60074" lon="-2.82721">
        <time>2018-05-13T16:21:27Z</time>
      </trkpt>
      <trkpt lat="47.60086" lon="-2.82724">
        <time>2018-05-13T16:21:33Z</time>
      </trkpt>
      <trkpt lat="47.60115" lon="-2.82728">
        <time>2018-05-13T16:21:49Z</time>
      </trkpt>
      <trkpt lat="47.60116" lon="-2.82728">
        <time>2018-05-13T16:21:50Z</time>
      </trkpt>
      <trkpt lat="47.60136" lon="-2.82737">
        <time>2018-05-13T16:22:04Z</time>
      </trkpt>
      <trkpt lat="47.60168" lon="-2.82738">
        <time>2018-05-13T16:22:20Z</time>
      </trkpt>
      <trkpt lat="47.60174" lon="-2.82738">
        <time>2018-05-13T16:22:24Z</time>
      </trkpt>
      <trkpt lat="47.60179" lon="-2.8274">
        <time>2018-05-13T16:22:28Z</time>
      </trkpt>
      <trkpt lat="47.60182" lon="-2.8274">
        <time>2018-05-13T16:22:30Z</time>
      </trkpt>
      <trkpt lat="47.60192" lon="-2.82739">
        <time>2018-05-13T16:22:36Z</time>
      </trkpt>
      <trkpt lat="47.60203" lon="-2.82739">
        <time>2018-05-13T16:22:42Z</time>
      </trkpt>
      <trkpt lat="47.60237" lon="-2.8274">
        <time>2018-05-13T16:22:59Z</time>
      </trkpt>
      <trkpt lat="47.6026" lon="-2.82739">
        <time>2018-05-13T16:23:10Z</time>
      </trkpt>
      <trkpt lat="47.60269" lon="-2.82741">
        <time>2018-05-13T16:23:14Z</time>
      </trkpt>
      <trkpt lat="47.60299" lon="-2.8274">
        <time>2018-05-13T16:23:29Z</time>
      </trkpt>
      <trkpt lat="47.60305" lon="-2.82742">
        <time>2018-05-13T16:23:33Z</time>
      </trkpt>
      <trkpt lat="47.60321" lon="-2.82748">
        <time>2018-05-13T16:23:41Z</time>
      </trkpt>
      <trkpt lat="47.60327" lon="-2.82752">
        <time>2018-05-13T16:23:44Z</time>
      </trkpt>
      <trkpt lat="47.60346" lon="-2.82756">
        <time>2018-05-13T16:23:52Z</time>
      </trkpt>
      <trkpt lat="47.60358" lon="-2.82758">
        <time>2018-05-13T16:23:58Z</time>
      </trkpt>
      <trkpt lat="47.60368" lon="-2.82767">
        <time>2018-05-13T16:24:04Z</time>
      </trkpt>
      <trkpt lat="47.60384" lon="-2.82784">
        <time>2018-05-13T16:24:13Z</time>
      </trkpt>
      <trkpt lat="47.60417" lon="-2.82817">
        <time>2018-05-13T16:24:31Z</time>
      </trkpt>
      <trkpt lat="47.60437" lon="-2.82831">
        <time>2018-05-13T16:24:41Z</time>
      </trkpt>
      <trkpt lat="47.60443" lon="-2.82832">
        <time>2018-05-13T16:24:44Z</time>
      </trkpt>
      <trkpt lat="47.60483" lon="-2.8285">
        <time>2018-05-13T16:25:03Z</time>
      </trkpt>
      <trkpt lat="47.60524" lon="-2.82866">
        <time>2018-05-13T16:25:22Z</time>
      </trkpt>
      <trkpt lat="47.60556" lon="-2.8287">
        <time>2018-05-13T16:25:38Z</time>
      </trkpt>
      <trkpt lat="47.60593" lon="-2.82878">
        <time>2018-05-13T16:25:55Z</time>
      </trkpt>
      <trkpt lat="47.60633" lon="-2.82886">
        <time>2018-05-13T16:26:13Z</time>
      </trkpt>
      <trkpt lat="47.60667" lon="-2.82887">
        <time>2018-05-13T16:26:28Z</time>
      </trkpt>
      <trkpt lat="47.6071" lon="-2.82887">
        <time>2018-05-13T16:26:46Z</time>
      </trkpt>
      <trkpt lat="47.60715" lon="-2.82887">
        <time>2018-05-13T16:26:48Z</time>
      </trkpt>
      <trkpt lat="47.60724" lon="-2.82887">
        <time>2018-05-13T16:26:52Z</time>
      </trkpt>
      <trkpt lat="47.60753" lon="-2.82884">
        <time>2018-05-13T16:27:07Z</time>
      </trkpt>
      <trkpt lat="47.60764" lon="-2.82886">
        <time>2018-05-13T16:27:13Z</time>
      </trkpt>
      <trkpt lat="47.60798" lon="-2.82894">
        <time>2018-05-13T16:27:30Z</time>
      </trkpt>
      <trkpt lat="47.60809" lon="-2.82894">
        <time>2018-05-13T16:27:37Z</time>
      </trkpt>
      <trkpt lat="47.60827" lon="-2.82897">
        <time>2018-05-13T16:27:46Z</time>
      </trkpt>
      <trkpt lat="47.6084" lon="-2.829">
        <time>2018-05-13T16:27:52Z</time>
      </trkpt>
      <trkpt lat="47.60852" lon="-2.82899">
        <time>2018-05-13T16:27:59Z</time>
      </trkpt>
      <trkpt lat="47.60855" lon="-2.829">
        <time>2018-05-13T16:28:01Z</time>
      </trkpt>
      <trkpt lat="47.60881" lon="-2.82898">
        <time>2018-05-13T16:28:16Z</time>
      </trkpt>
      <trkpt lat="47.60885" lon="-2.82896">
        <time>2018-05-13T16:28:19Z</time>
      </trkpt>
      <trkpt lat="47.60893" lon="-2.82896">
        <time>2018-05-13T16:28:24Z</time>
      </trkpt>
      <trkpt lat="47.60897" lon="-2.82898">
        <time>2018-05-13T16:28:26Z</time>
      </trkpt>
      <trkpt lat="47.60924" lon="-2.82912">
        <time>2018-05-13T16:28:39Z</time>
      </trkpt>
      <trkpt lat="47.60931" lon="-2.82915">
        <time>2018-05-13T16:28:43Z</time>
      </trkpt>
      <trkpt lat="47.60952" lon="-2.82917">
        <time>2018-05-13T16:28:54Z</time>
      </trkpt>
      <trkpt lat="47.6097" lon="-2.82918">
        <time>2018-05-13T16:29:05Z</time>
      </trkpt>
      <trkpt lat="47.60994" lon="-2.82918">
        <time>2018-05-13T16:29:20Z</time>
      </trkpt>
      <trkpt lat="47.61014" lon="-2.82913">
        <time>2018-05-13T16:29:32Z</time>
      </trkpt>
      <trkpt lat="47.61019" lon="-2.82912">
        <time>2018-05-13T16:29:35Z</time>
      </trkpt>
      <trkpt lat="47.61033" lon="-2.82909">
        <time>2018-05-13T16:29:43Z</time>
      </trkpt>
      <trkpt lat="47.61055" lon="-2.82901">
        <time>2018-05-13T16:29:55Z</time>
      </trkpt>
      <trkpt lat="47.6106" lon="-2.82901">
        <time>2018-05-13T16:29:58Z</time>
      </trkpt>
      <trkpt lat="47.61068" lon="-2.82902">
        <time>2018-05-13T16:30:03Z</time>
      </trkpt>
      <trkpt lat="47.61095" lon="-2.82904">
        <time>2018-05-13T16:30:21Z</time>
      </trkpt>
      <trkpt lat="47.61119" lon="-2.82906">
        <time>2018-05-13T16:30:34Z</time>
      </trkpt>
      <trkpt lat="47.61127" lon="-2.82907">
        <time>2018-05-13T16:30:39Z</time>
      </trkpt>
      <trkpt lat="47.6116" lon="-2.82902">
        <time>2018-05-13T16:30:57Z</time>
      </trkpt>
      <trkpt lat="47.61192" lon="-2.82907">
        <time>2018-05-13T16:31:13Z</time>
      </trkpt>
      <trkpt lat="47.61217" lon="-2.82903">
        <time>2018-05-13T16:31:25Z</time>
      </trkpt>
      <trkpt lat="47.61224" lon="-2.829">
        <time>2018-05-13T16:31:29Z</time>
      </trkpt>
      <trkpt lat="47.61247" lon="-2.82901">
        <time>2018-05-13T16:31:40Z</time>
      </trkpt>
      <trkpt lat="47.61279" lon="-2.82892">
        <time>2018-05-13T16:31:58Z</time>
      </trkpt>
      <trkpt lat="47.61293" lon="-2.82894">
        <time>2018-05-13T16:32:06Z</time>
      </trkpt>
      <trkpt lat="47.61309" lon="-2.829">
        <time>2018-05-13T16:32:15Z</time>
      </trkpt>
      <trkpt lat="47.6134" lon="-2.829">
        <time>2018-05-13T16:32:32Z</time>
      </trkpt>
      <trkpt lat="47.61355" lon="-2.82893">
        <time>2018-05-13T16:32:41Z</time>
      </trkpt>
      <trkpt lat="47.61367" lon="-2.82887">
        <time>2018-05-13T16:32:47Z</time>
      </trkpt>
      <trkpt lat="47.61381" lon="-2.82883">
        <time>2018-05-13T16:32:55Z</time>
      </trkpt>
      <trkpt lat="47.61387" lon="-2.82885">
        <time>2018-05-13T16:32:59Z</time>
      </trkpt>
      <trkpt lat="47.61418" lon="-2.8287">
        <ele>3</ele>
        <time>2018-05-13T16:33:16Z</time>
      </trkpt>
      <trkpt lat="47.6142" lon="-2.82868">
        <ele>3</ele>
        <time>2018-05-13T16:33:18Z</time>
      </trkpt>
      <trkpt lat="47.61433" lon="-2.82861">
        <ele>3</ele>
        <time>2018-05-13T16:33:30Z</time>
      </trkpt>
      <trkpt lat="47.6144" lon="-2.82852">
        <ele>3</ele>
        <time>2018-05-13T16:33:36Z</time>
      </trkpt>
      <trkpt lat="47.61445" lon="-2.82847">
        <ele>3</ele>
        <time>2018-05-13T16:33:41Z</time>
      </trkpt>
      <trkpt lat="47.61449" lon="-2.82843">
        <ele>3</ele>
        <time>2018-05-13T16:33:45Z</time>
      </trkpt>
      <trkpt lat="47.61461" lon="-2.82823">
        <time>2018-05-13T16:34:03Z</time>
      </trkpt>
      <trkpt lat="47.61462" lon="-2.8282">
        <time>2018-05-13T16:34:05Z</time>
      </trkpt>
      <trkpt lat="47.61464" lon="-2.82815">
        <time>2018-05-13T16:34:08Z</time>
      </trkpt>
      <trkpt lat="47.61466" lon="-2.82811">
        <time>2018-05-13T16:34:11Z</time>
      </trkpt>
      <trkpt lat="47.61471" lon="-2.82805">
        <time>2018-05-13T16:34:17Z</time>
      </trkpt>
      <trkpt lat="47.61471" lon="-2.82801">
        <time>2018-05-13T16:34:20Z</time>
      </trkpt>
      <trkpt lat="47.61472" lon="-2.82796">
        <time>2018-05-13T16:34:24Z</time>
      </trkpt>
      <trkpt lat="47.61478" lon="-2.82774">
        <time>2018-05-13T16:34:41Z</time>
      </trkpt>
      <trkpt lat="47.61485" lon="-2.82762">
        <time>2018-05-13T16:34:57Z</time>
      </trkpt>
      <trkpt lat="47.61503" lon="-2.82764">
        <ele>8</ele>
        <time>2018-05-13T16:35:09Z</time>
      </trkpt>
      <trkpt lat="47.61509" lon="-2.82765">
        <ele>8</ele>
        <time>2018-05-13T16:35:13Z</time>
      </trkpt>
      <trkpt lat="47.61513" lon="-2.82765">
        <ele>8</ele>
        <time>2018-05-13T16:35:16Z</time>
      </trkpt>
      <trkpt lat="47.6153" lon="-2.82763">
        <ele>8</ele>
        <time>2018-05-13T16:35:28Z</time>
      </trkpt>
      <trkpt lat="47.61543" lon="-2.82763">
        <ele>8</ele>
        <time>2018-05-13T16:35:37Z</time>
      </trkpt>
      <trkpt lat="47.61546" lon="-2.82764">
        <ele>8</ele>
        <time>2018-05-13T16:35:39Z</time>
      </trkpt>
      <trkpt lat="47.61549" lon="-2.82765">
        <ele>8</ele>
        <time>2018-05-13T16:35:41Z</time>
      </trkpt>
      <trkpt lat="47.61558" lon="-2.82764">
        <ele>8</ele>
        <time>2018-05-13T16:35:46Z</time>
      </trkpt>
      <trkpt lat="47.61563" lon="-2.82763">
        <ele>8</ele>
        <time>2018-05-13T16:35:50Z</time>
      </trkpt>
      <trkpt lat="47.61576" lon="-2.8276">
        <ele>8</ele>
        <time>2018-05-13T16:36:08Z</time>
      </trkpt>
      <trkpt lat="47.61594" lon="-2.82756">
        <ele>9</ele>
        <time>2018-05-13T16:36:31Z</time>
      </trkpt>
      <trkpt lat="47.616" lon="-2.82762">
        <ele>9</ele>
        <time>2018-05-13T16:36:49Z</time>
      </trkpt>
      <trkpt lat="47.61596" lon="-2.82774">
        <ele>9</ele>
        <time>2018-05-13T16:37:01Z</time>
      </trkpt>
      <trkpt lat="47.61596" lon="-2.82786">
        <ele>9</ele>
        <time>2018-05-13T16:37:19Z</time>
      </trkpt>
      <trkpt lat="47.61599" lon="-2.82788">
        <ele>9</ele>
        <time>2018-05-13T16:37:22Z</time>
      </trkpt>
      <trkpt lat="47.61605" lon="-2.82791">
        <ele>10</ele>
        <time>2018-05-13T16:37:26Z</time>
      </trkpt>
      <trkpt lat="47.61614" lon="-2.82793">
        <ele>10</ele>
        <time>2018-05-13T16:37:31Z</time>
      </trkpt>
      <trkpt lat="47.61615" lon="-2.82793">
        <ele>10</ele>
        <time>2018-05-13T16:37:32Z</time>
      </trkpt>
    </trkseg>
  </trk>
</gpx>